<?xml version="1.0" encoding="UTF-8" standalone="no" ?>
<gpx xmlns="http://www.topografix.com/GPX/1/1" xmlns:xsi="http://www.w3.org/2001/XMLSchema-instance" xsi:schemaLocation="http://www.topografix.com/GPX/1/1 http://www.topografix.com/GPX/1/1/gpx.xsd" version="1.1" creator="VisuGPX - https://www.visugpx.com">
  <metadata>
    <name>Ballade dans les auteurs de ludres</name>
    <desc><![CDATA[Ballade dans la forêt de entre Ludres, Vandoeuvre et Houdemont.]]></desc>
  </metadata>
  <wpt lat="48.63376" lon="6.15258">
    <ele>457</ele>
    <name><![CDATA[Statistiques]]></name>
    <desc><![CDATA[Distance totale: 1,38 km (0,9 mile(s))
Durée totale: 24:35
Durée de déplacement: 15:34
Vitesse moyenne: 3,37 km/h (2,1 miles/h)
Vitesse moyenne de déplacement: 5,33 km/h (3,3 miles/h)
Vitesse maximale: 8,44 km/h (5,2 miles/h)
Élévation minimale: 423 m (1388 pied(s))
Altitude maximale: 468 m (1536 pied(s))
Dénivelé: 47 m (155 pied(s))
Niveau maximal: 0 %
Niveau minimal: 0 %
]]></desc>
  </wpt>
  <wpt lat="48.63376" lon="6.15258">
    <ele>457</ele>
    <name><![CDATA[Point de cheminement Antenne De Ludres]]></name>
    <desc><![CDATA[]]></desc>
  </wpt>
  <trk>
    <name><![CDATA[03/02/12 09:52 Ballade Entre Ludres Et Vandoeuvre]]></name>
    <desc><![CDATA[Boucle pres de l etrier de lorraine de ludres puis antenne, long de A31]]></desc>
    <trkseg>
      <trkpt lat="48.62544" lon="6.16149">
        <ele>451</ele>
        <time>2012-02-04T08:53:10Z</time>
      </trkpt>
      <trkpt lat="48.62544" lon="6.16149">
        <ele>451</ele>
        <time>2012-02-04T08:53:10Z</time>
      </trkpt>
      <trkpt lat="48.62544" lon="6.16149">
        <ele>451</ele>
        <time>2012-02-04T08:53:21Z</time>
      </trkpt>
      <trkpt lat="48.62551" lon="6.1614">
        <ele>451</ele>
        <time>2012-02-04T08:53:23Z</time>
      </trkpt>
      <trkpt lat="48.62551" lon="6.1614">
        <ele>451</ele>
        <time>2012-02-04T08:53:23Z</time>
      </trkpt>
      <trkpt lat="48.62551" lon="6.1614">
        <ele>451</ele>
        <time>2012-02-04T08:53:29Z</time>
      </trkpt>
      <trkpt lat="48.62555" lon="6.16136">
        <ele>452</ele>
        <time>2012-02-04T08:53:31Z</time>
      </trkpt>
      <trkpt lat="48.62559" lon="6.16133">
        <ele>454</ele>
        <time>2012-02-04T08:53:44Z</time>
      </trkpt>
      <trkpt lat="48.62563" lon="6.16128">
        <ele>453</ele>
        <time>2012-02-04T08:53:54Z</time>
      </trkpt>
      <trkpt lat="48.62564" lon="6.1612">
        <ele>453</ele>
        <time>2012-02-04T08:54:07Z</time>
      </trkpt>
      <trkpt lat="48.62566" lon="6.16115">
        <ele>450</ele>
        <time>2012-02-04T08:54:16Z</time>
      </trkpt>
      <trkpt lat="48.6257" lon="6.16121">
        <ele>445</ele>
        <time>2012-02-04T08:54:31Z</time>
      </trkpt>
      <trkpt lat="48.62572" lon="6.16129">
        <ele>443</ele>
        <time>2012-02-04T08:54:35Z</time>
      </trkpt>
      <trkpt lat="48.62576" lon="6.16135">
        <ele>441</ele>
        <time>2012-02-04T08:54:39Z</time>
      </trkpt>
      <trkpt lat="48.62581" lon="6.16137">
        <ele>440</ele>
        <time>2012-02-04T08:54:43Z</time>
      </trkpt>
      <trkpt lat="48.62585" lon="6.16136">
        <ele>439</ele>
        <time>2012-02-04T08:54:46Z</time>
      </trkpt>
      <trkpt lat="48.62591" lon="6.16134">
        <ele>438</ele>
        <time>2012-02-04T08:54:50Z</time>
      </trkpt>
      <trkpt lat="48.62596" lon="6.16132">
        <ele>437</ele>
        <time>2012-02-04T08:54:54Z</time>
      </trkpt>
      <trkpt lat="48.62601" lon="6.1613">
        <ele>435</ele>
        <time>2012-02-04T08:54:58Z</time>
      </trkpt>
      <trkpt lat="48.62606" lon="6.16128">
        <ele>434</ele>
        <time>2012-02-04T08:55:02Z</time>
      </trkpt>
      <trkpt lat="48.62611" lon="6.16126">
        <ele>434</ele>
        <time>2012-02-04T08:55:05Z</time>
      </trkpt>
      <trkpt lat="48.62616" lon="6.16126">
        <ele>433</ele>
        <time>2012-02-04T08:55:08Z</time>
      </trkpt>
      <trkpt lat="48.6262" lon="6.16125">
        <ele>433</ele>
        <time>2012-02-04T08:55:11Z</time>
      </trkpt>
      <trkpt lat="48.62626" lon="6.16124">
        <ele>432</ele>
        <time>2012-02-04T08:55:15Z</time>
      </trkpt>
      <trkpt lat="48.62631" lon="6.16124">
        <ele>432</ele>
        <time>2012-02-04T08:55:18Z</time>
      </trkpt>
      <trkpt lat="48.62635" lon="6.16123">
        <ele>431</ele>
        <time>2012-02-04T08:55:21Z</time>
      </trkpt>
      <trkpt lat="48.6264" lon="6.16122">
        <ele>430</ele>
        <time>2012-02-04T08:55:24Z</time>
      </trkpt>
      <trkpt lat="48.62644" lon="6.16122">
        <ele>430</ele>
        <time>2012-02-04T08:55:27Z</time>
      </trkpt>
      <trkpt lat="48.62649" lon="6.16122">
        <ele>429</ele>
        <time>2012-02-04T08:55:30Z</time>
      </trkpt>
      <trkpt lat="48.62654" lon="6.1612">
        <ele>429</ele>
        <time>2012-02-04T08:55:33Z</time>
      </trkpt>
      <trkpt lat="48.62659" lon="6.16119">
        <ele>428</ele>
        <time>2012-02-04T08:55:37Z</time>
      </trkpt>
      <trkpt lat="48.62665" lon="6.16117">
        <ele>427</ele>
        <time>2012-02-04T08:55:41Z</time>
      </trkpt>
      <trkpt lat="48.6267" lon="6.16115">
        <ele>427</ele>
        <time>2012-02-04T08:55:45Z</time>
      </trkpt>
      <trkpt lat="48.62674" lon="6.16113">
        <ele>426</ele>
        <time>2012-02-04T08:55:49Z</time>
      </trkpt>
      <trkpt lat="48.62679" lon="6.16111">
        <ele>426</ele>
        <time>2012-02-04T08:55:53Z</time>
      </trkpt>
      <trkpt lat="48.62684" lon="6.16108">
        <ele>425</ele>
        <time>2012-02-04T08:55:57Z</time>
      </trkpt>
      <trkpt lat="48.62688" lon="6.16106">
        <ele>425</ele>
        <time>2012-02-04T08:56:01Z</time>
      </trkpt>
      <trkpt lat="48.62693" lon="6.16103">
        <ele>425</ele>
        <time>2012-02-04T08:56:05Z</time>
      </trkpt>
      <trkpt lat="48.62697" lon="6.161">
        <ele>424</ele>
        <time>2012-02-04T08:56:09Z</time>
      </trkpt>
      <trkpt lat="48.62702" lon="6.16096">
        <ele>424</ele>
        <time>2012-02-04T08:56:14Z</time>
      </trkpt>
      <trkpt lat="48.62706" lon="6.16093">
        <ele>424</ele>
        <time>2012-02-04T08:56:18Z</time>
      </trkpt>
      <trkpt lat="48.6271" lon="6.16089">
        <ele>424</ele>
        <time>2012-02-04T08:56:22Z</time>
      </trkpt>
      <trkpt lat="48.62714" lon="6.16085">
        <ele>423</ele>
        <time>2012-02-04T08:56:26Z</time>
      </trkpt>
      <trkpt lat="48.62717" lon="6.16081">
        <ele>423</ele>
        <time>2012-02-04T08:56:30Z</time>
      </trkpt>
      <trkpt lat="48.62721" lon="6.16077">
        <ele>423</ele>
        <time>2012-02-04T08:56:34Z</time>
      </trkpt>
      <trkpt lat="48.62725" lon="6.16072">
        <ele>423</ele>
        <time>2012-02-04T08:56:38Z</time>
      </trkpt>
      <trkpt lat="48.62729" lon="6.16067">
        <ele>423</ele>
        <time>2012-02-04T08:56:43Z</time>
      </trkpt>
      <trkpt lat="48.62733" lon="6.16062">
        <ele>423</ele>
        <time>2012-02-04T08:56:48Z</time>
      </trkpt>
      <trkpt lat="48.62737" lon="6.16056">
        <ele>424</ele>
        <time>2012-02-04T08:56:53Z</time>
      </trkpt>
      <trkpt lat="48.6274" lon="6.16051">
        <ele>424</ele>
        <time>2012-02-04T08:56:58Z</time>
      </trkpt>
      <trkpt lat="48.62744" lon="6.16045">
        <ele>424</ele>
        <time>2012-02-04T08:57:03Z</time>
      </trkpt>
      <trkpt lat="48.62747" lon="6.1604">
        <ele>424</ele>
        <time>2012-02-04T08:57:08Z</time>
      </trkpt>
      <trkpt lat="48.6275" lon="6.16035">
        <ele>424</ele>
        <time>2012-02-04T08:57:13Z</time>
      </trkpt>
      <trkpt lat="48.62754" lon="6.1603">
        <ele>424</ele>
        <time>2012-02-04T08:57:18Z</time>
      </trkpt>
      <trkpt lat="48.62756" lon="6.16024">
        <ele>424</ele>
        <time>2012-02-04T08:57:23Z</time>
      </trkpt>
      <trkpt lat="48.62759" lon="6.16017">
        <ele>424</ele>
        <time>2012-02-04T08:57:28Z</time>
      </trkpt>
      <trkpt lat="48.62762" lon="6.16011">
        <ele>425</ele>
        <time>2012-02-04T08:57:33Z</time>
      </trkpt>
      <trkpt lat="48.62764" lon="6.16004">
        <ele>425</ele>
        <time>2012-02-04T08:57:38Z</time>
      </trkpt>
      <trkpt lat="48.62767" lon="6.15999">
        <ele>425</ele>
        <time>2012-02-04T08:57:43Z</time>
      </trkpt>
      <trkpt lat="48.6277" lon="6.15993">
        <ele>425</ele>
        <time>2012-02-04T08:57:48Z</time>
      </trkpt>
      <trkpt lat="48.62773" lon="6.15987">
        <ele>425</ele>
        <time>2012-02-04T08:57:53Z</time>
      </trkpt>
      <trkpt lat="48.62777" lon="6.15981">
        <ele>426</ele>
        <time>2012-02-04T08:57:58Z</time>
      </trkpt>
      <trkpt lat="48.62781" lon="6.15975">
        <ele>426</ele>
        <time>2012-02-04T08:58:03Z</time>
      </trkpt>
      <trkpt lat="48.62784" lon="6.15968">
        <ele>426</ele>
        <time>2012-02-04T08:58:08Z</time>
      </trkpt>
      <trkpt lat="48.62786" lon="6.15961">
        <ele>427</ele>
        <time>2012-02-04T08:58:13Z</time>
      </trkpt>
      <trkpt lat="48.62789" lon="6.15955">
        <ele>427</ele>
        <time>2012-02-04T08:58:18Z</time>
      </trkpt>
      <trkpt lat="48.62791" lon="6.15948">
        <ele>427</ele>
        <time>2012-02-04T08:58:22Z</time>
      </trkpt>
      <trkpt lat="48.62794" lon="6.15941">
        <ele>427</ele>
        <time>2012-02-04T08:58:27Z</time>
      </trkpt>
      <trkpt lat="48.62796" lon="6.15934">
        <ele>427</ele>
        <time>2012-02-04T08:58:32Z</time>
      </trkpt>
      <trkpt lat="48.62798" lon="6.15926">
        <ele>427</ele>
        <time>2012-02-04T08:58:37Z</time>
      </trkpt>
      <trkpt lat="48.62799" lon="6.1592">
        <ele>428</ele>
        <time>2012-02-04T08:58:41Z</time>
      </trkpt>
      <trkpt lat="48.62801" lon="6.15913">
        <ele>428</ele>
        <time>2012-02-04T08:58:45Z</time>
      </trkpt>
      <trkpt lat="48.62803" lon="6.15906">
        <ele>428</ele>
        <time>2012-02-04T08:58:49Z</time>
      </trkpt>
      <trkpt lat="48.62805" lon="6.15899">
        <ele>428</ele>
        <time>2012-02-04T08:58:53Z</time>
      </trkpt>
      <trkpt lat="48.62808" lon="6.15893">
        <ele>429</ele>
        <time>2012-02-04T08:58:57Z</time>
      </trkpt>
      <trkpt lat="48.62811" lon="6.15887">
        <ele>429</ele>
        <time>2012-02-04T08:59:01Z</time>
      </trkpt>
      <trkpt lat="48.62814" lon="6.15882">
        <ele>429</ele>
        <time>2012-02-04T08:59:05Z</time>
      </trkpt>
      <trkpt lat="48.62818" lon="6.15876">
        <ele>429</ele>
        <time>2012-02-04T08:59:09Z</time>
      </trkpt>
      <trkpt lat="48.62822" lon="6.15872">
        <ele>429</ele>
        <time>2012-02-04T08:59:13Z</time>
      </trkpt>
      <trkpt lat="48.62826" lon="6.15868">
        <ele>429</ele>
        <time>2012-02-04T08:59:18Z</time>
      </trkpt>
      <trkpt lat="48.62831" lon="6.15865">
        <ele>430</ele>
        <time>2012-02-04T08:59:24Z</time>
      </trkpt>
      <trkpt lat="48.62834" lon="6.1586">
        <ele>430</ele>
        <time>2012-02-04T08:59:33Z</time>
      </trkpt>
      <trkpt lat="48.62838" lon="6.15856">
        <ele>430</ele>
        <time>2012-02-04T08:59:37Z</time>
      </trkpt>
      <trkpt lat="48.62843" lon="6.15854">
        <ele>430</ele>
        <time>2012-02-04T08:59:41Z</time>
      </trkpt>
      <trkpt lat="48.62849" lon="6.15854">
        <ele>430</ele>
        <time>2012-02-04T08:59:45Z</time>
      </trkpt>
      <trkpt lat="48.62854" lon="6.15853">
        <ele>431</ele>
        <time>2012-02-04T08:59:49Z</time>
      </trkpt>
      <trkpt lat="48.6286" lon="6.15854">
        <ele>431</ele>
        <time>2012-02-04T08:59:53Z</time>
      </trkpt>
      <trkpt lat="48.62865" lon="6.15854">
        <ele>431</ele>
        <time>2012-02-04T08:59:57Z</time>
      </trkpt>
      <trkpt lat="48.62871" lon="6.15853">
        <ele>431</ele>
        <time>2012-02-04T09:00:01Z</time>
      </trkpt>
      <trkpt lat="48.62876" lon="6.15852">
        <ele>432</ele>
        <time>2012-02-04T09:00:05Z</time>
      </trkpt>
      <trkpt lat="48.62881" lon="6.1585">
        <ele>432</ele>
        <time>2012-02-04T09:00:09Z</time>
      </trkpt>
      <trkpt lat="48.62887" lon="6.15851">
        <ele>433</ele>
        <time>2012-02-04T09:00:13Z</time>
      </trkpt>
      <trkpt lat="48.62893" lon="6.15851">
        <ele>433</ele>
        <time>2012-02-04T09:00:17Z</time>
      </trkpt>
      <trkpt lat="48.62898" lon="6.15851">
        <ele>434</ele>
        <time>2012-02-04T09:00:20Z</time>
      </trkpt>
      <trkpt lat="48.62902" lon="6.15851">
        <ele>434</ele>
        <time>2012-02-04T09:00:23Z</time>
      </trkpt>
      <trkpt lat="48.62907" lon="6.15852">
        <ele>435</ele>
        <time>2012-02-04T09:00:26Z</time>
      </trkpt>
      <trkpt lat="48.62912" lon="6.15851">
        <ele>436</ele>
        <time>2012-02-04T09:00:30Z</time>
      </trkpt>
      <trkpt lat="48.62917" lon="6.1585">
        <ele>438</ele>
        <time>2012-02-04T09:00:34Z</time>
      </trkpt>
      <trkpt lat="48.62914" lon="6.15855">
        <ele>440</ele>
        <time>2012-02-04T09:00:48Z</time>
      </trkpt>
      <trkpt lat="48.62916" lon="6.15848">
        <ele>442</ele>
        <time>2012-02-04T09:01:46Z</time>
      </trkpt>
      <trkpt lat="48.62915" lon="6.15841">
        <ele>442</ele>
        <time>2012-02-04T09:01:54Z</time>
      </trkpt>
      <trkpt lat="48.62913" lon="6.15847">
        <ele>443</ele>
        <time>2012-02-04T09:02:12Z</time>
      </trkpt>
      <trkpt lat="48.62914" lon="6.15854">
        <ele>443</ele>
        <time>2012-02-04T09:02:28Z</time>
      </trkpt>
      <trkpt lat="48.62918" lon="6.15856">
        <ele>444</ele>
        <time>2012-02-04T09:02:31Z</time>
      </trkpt>
      <trkpt lat="48.62924" lon="6.15856">
        <ele>444</ele>
        <time>2012-02-04T09:02:34Z</time>
      </trkpt>
      <trkpt lat="48.62929" lon="6.15854">
        <ele>444</ele>
        <time>2012-02-04T09:02:37Z</time>
      </trkpt>
      <trkpt lat="48.62934" lon="6.15852">
        <ele>445</ele>
        <time>2012-02-04T09:02:40Z</time>
      </trkpt>
      <trkpt lat="48.6294" lon="6.1585">
        <ele>445</ele>
        <time>2012-02-04T09:02:44Z</time>
      </trkpt>
      <trkpt lat="48.62945" lon="6.15848">
        <ele>446</ele>
        <time>2012-02-04T09:02:48Z</time>
      </trkpt>
      <trkpt lat="48.6295" lon="6.15846">
        <ele>446</ele>
        <time>2012-02-04T09:02:51Z</time>
      </trkpt>
      <trkpt lat="48.62954" lon="6.15845">
        <ele>447</ele>
        <time>2012-02-04T09:02:54Z</time>
      </trkpt>
      <trkpt lat="48.6296" lon="6.15843">
        <ele>447</ele>
        <time>2012-02-04T09:02:58Z</time>
      </trkpt>
      <trkpt lat="48.62966" lon="6.15842">
        <ele>448</ele>
        <time>2012-02-04T09:03:02Z</time>
      </trkpt>
      <trkpt lat="48.62972" lon="6.1584">
        <ele>448</ele>
        <time>2012-02-04T09:03:06Z</time>
      </trkpt>
      <trkpt lat="48.62977" lon="6.15838">
        <ele>449</ele>
        <time>2012-02-04T09:03:10Z</time>
      </trkpt>
      <trkpt lat="48.62982" lon="6.15836">
        <ele>449</ele>
        <time>2012-02-04T09:03:13Z</time>
      </trkpt>
      <trkpt lat="48.62986" lon="6.15835">
        <ele>449</ele>
        <time>2012-02-04T09:03:16Z</time>
      </trkpt>
      <trkpt lat="48.62991" lon="6.15831">
        <ele>450</ele>
        <time>2012-02-04T09:03:20Z</time>
      </trkpt>
      <trkpt lat="48.62995" lon="6.15824">
        <ele>451</ele>
        <time>2012-02-04T09:03:24Z</time>
      </trkpt>
      <trkpt lat="48.62998" lon="6.15818">
        <ele>451</ele>
        <time>2012-02-04T09:03:27Z</time>
      </trkpt>
      <trkpt lat="48.63" lon="6.15811">
        <ele>452</ele>
        <time>2012-02-04T09:03:31Z</time>
      </trkpt>
      <trkpt lat="48.63003" lon="6.15818">
        <ele>453</ele>
        <time>2012-02-04T09:03:52Z</time>
      </trkpt>
      <trkpt lat="48.63006" lon="6.15824">
        <ele>453</ele>
        <time>2012-02-04T09:03:56Z</time>
      </trkpt>
      <trkpt lat="48.6301" lon="6.15829">
        <ele>453</ele>
        <time>2012-02-04T09:04:00Z</time>
      </trkpt>
      <trkpt lat="48.63015" lon="6.15828">
        <ele>454</ele>
        <time>2012-02-04T09:04:04Z</time>
      </trkpt>
      <trkpt lat="48.6302" lon="6.15826">
        <ele>454</ele>
        <time>2012-02-04T09:04:08Z</time>
      </trkpt>
      <trkpt lat="48.63026" lon="6.15823">
        <ele>455</ele>
        <time>2012-02-04T09:04:12Z</time>
      </trkpt>
      <trkpt lat="48.6303" lon="6.1582">
        <ele>455</ele>
        <time>2012-02-04T09:04:15Z</time>
      </trkpt>
      <trkpt lat="48.63035" lon="6.15818">
        <ele>456</ele>
        <time>2012-02-04T09:04:18Z</time>
      </trkpt>
      <trkpt lat="48.63039" lon="6.15814">
        <ele>456</ele>
        <time>2012-02-04T09:04:21Z</time>
      </trkpt>
      <trkpt lat="48.63043" lon="6.15811">
        <ele>457</ele>
        <time>2012-02-04T09:04:24Z</time>
      </trkpt>
      <trkpt lat="48.63048" lon="6.15808">
        <ele>457</ele>
        <time>2012-02-04T09:04:29Z</time>
      </trkpt>
      <trkpt lat="48.63053" lon="6.15804">
        <ele>458</ele>
        <time>2012-02-04T09:04:33Z</time>
      </trkpt>
      <trkpt lat="48.63058" lon="6.15799">
        <ele>459</ele>
        <time>2012-02-04T09:04:37Z</time>
      </trkpt>
      <trkpt lat="48.63062" lon="6.15794">
        <ele>459</ele>
        <time>2012-02-04T09:04:41Z</time>
      </trkpt>
      <trkpt lat="48.63067" lon="6.15789">
        <ele>460</ele>
        <time>2012-02-04T09:04:45Z</time>
      </trkpt>
      <trkpt lat="48.63071" lon="6.15785">
        <ele>460</ele>
        <time>2012-02-04T09:04:48Z</time>
      </trkpt>
      <trkpt lat="48.63075" lon="6.15781">
        <ele>461</ele>
        <time>2012-02-04T09:04:51Z</time>
      </trkpt>
      <trkpt lat="48.63079" lon="6.15777">
        <ele>461</ele>
        <time>2012-02-04T09:04:54Z</time>
      </trkpt>
      <trkpt lat="48.63082" lon="6.15773">
        <ele>462</ele>
        <time>2012-02-04T09:04:57Z</time>
      </trkpt>
      <trkpt lat="48.63086" lon="6.15769">
        <ele>462</ele>
        <time>2012-02-04T09:05:00Z</time>
      </trkpt>
      <trkpt lat="48.63091" lon="6.15764">
        <ele>462</ele>
        <time>2012-02-04T09:05:04Z</time>
      </trkpt>
      <trkpt lat="48.63095" lon="6.1576">
        <ele>463</ele>
        <time>2012-02-04T09:05:08Z</time>
      </trkpt>
      <trkpt lat="48.631" lon="6.15756">
        <ele>463</ele>
        <time>2012-02-04T09:05:12Z</time>
      </trkpt>
      <trkpt lat="48.63104" lon="6.15751">
        <ele>464</ele>
        <time>2012-02-04T09:05:33Z</time>
      </trkpt>
      <trkpt lat="48.63109" lon="6.15746">
        <ele>464</ele>
        <time>2012-02-04T09:05:37Z</time>
      </trkpt>
      <trkpt lat="48.63114" lon="6.15742">
        <ele>464</ele>
        <time>2012-02-04T09:05:41Z</time>
      </trkpt>
      <trkpt lat="48.63118" lon="6.15737">
        <ele>465</ele>
        <time>2012-02-04T09:05:45Z</time>
      </trkpt>
      <trkpt lat="48.63123" lon="6.15732">
        <ele>465</ele>
        <time>2012-02-04T09:05:49Z</time>
      </trkpt>
      <trkpt lat="48.63126" lon="6.15728">
        <ele>465</ele>
        <time>2012-02-04T09:05:52Z</time>
      </trkpt>
      <trkpt lat="48.6313" lon="6.15724">
        <ele>465</ele>
        <time>2012-02-04T09:05:55Z</time>
      </trkpt>
      <trkpt lat="48.63133" lon="6.15719">
        <ele>465</ele>
        <time>2012-02-04T09:05:58Z</time>
      </trkpt>
      <trkpt lat="48.63137" lon="6.15714">
        <ele>465</ele>
        <time>2012-02-04T09:06:01Z</time>
      </trkpt>
      <trkpt lat="48.63141" lon="6.1571">
        <ele>466</ele>
        <time>2012-02-04T09:06:04Z</time>
      </trkpt>
      <trkpt lat="48.63144" lon="6.15706">
        <ele>466</ele>
        <time>2012-02-04T09:06:07Z</time>
      </trkpt>
      <trkpt lat="48.63148" lon="6.15701">
        <ele>466</ele>
        <time>2012-02-04T09:06:10Z</time>
      </trkpt>
      <trkpt lat="48.63152" lon="6.15697">
        <ele>466</ele>
        <time>2012-02-04T09:06:13Z</time>
      </trkpt>
      <trkpt lat="48.63155" lon="6.15691">
        <ele>466</ele>
        <time>2012-02-04T09:06:16Z</time>
      </trkpt>
      <trkpt lat="48.63159" lon="6.15685">
        <ele>466</ele>
        <time>2012-02-04T09:06:20Z</time>
      </trkpt>
      <trkpt lat="48.63164" lon="6.1568">
        <ele>467</ele>
        <time>2012-02-04T09:06:24Z</time>
      </trkpt>
      <trkpt lat="48.63168" lon="6.15674">
        <ele>467</ele>
        <time>2012-02-04T09:06:28Z</time>
      </trkpt>
      <trkpt lat="48.63171" lon="6.15667">
        <ele>467</ele>
        <time>2012-02-04T09:06:32Z</time>
      </trkpt>
      <trkpt lat="48.63175" lon="6.15661">
        <ele>467</ele>
        <time>2012-02-04T09:06:37Z</time>
      </trkpt>
      <trkpt lat="48.63178" lon="6.15655">
        <ele>467</ele>
        <time>2012-02-04T09:06:41Z</time>
      </trkpt>
      <trkpt lat="48.63182" lon="6.1565">
        <ele>467</ele>
        <time>2012-02-04T09:06:45Z</time>
      </trkpt>
      <trkpt lat="48.63186" lon="6.15645">
        <ele>467</ele>
        <time>2012-02-04T09:06:49Z</time>
      </trkpt>
      <trkpt lat="48.6319" lon="6.15638">
        <ele>467</ele>
        <time>2012-02-04T09:06:54Z</time>
      </trkpt>
      <trkpt lat="48.63192" lon="6.15633">
        <ele>468</ele>
        <time>2012-02-04T09:06:58Z</time>
      </trkpt>
      <trkpt lat="48.63195" lon="6.15627">
        <ele>468</ele>
        <time>2012-02-04T09:07:02Z</time>
      </trkpt>
      <trkpt lat="48.63198" lon="6.15621">
        <ele>468</ele>
        <time>2012-02-04T09:07:06Z</time>
      </trkpt>
      <trkpt lat="48.63201" lon="6.15613">
        <ele>468</ele>
        <time>2012-02-04T09:07:10Z</time>
      </trkpt>
      <trkpt lat="48.63204" lon="6.15606">
        <ele>468</ele>
        <time>2012-02-04T09:07:14Z</time>
      </trkpt>
      <trkpt lat="48.63206" lon="6.15598">
        <ele>468</ele>
        <time>2012-02-04T09:07:18Z</time>
      </trkpt>
      <trkpt lat="48.63209" lon="6.1559">
        <ele>468</ele>
        <time>2012-02-04T09:07:22Z</time>
      </trkpt>
      <trkpt lat="48.63211" lon="6.15583">
        <ele>468</ele>
        <time>2012-02-04T09:07:26Z</time>
      </trkpt>
      <trkpt lat="48.63208" lon="6.15578">
        <ele>468</ele>
        <time>2012-02-04T09:07:31Z</time>
      </trkpt>
      <trkpt lat="48.63202" lon="6.15576">
        <ele>468</ele>
        <time>2012-02-04T09:07:36Z</time>
      </trkpt>
      <trkpt lat="48.63197" lon="6.15575">
        <ele>468</ele>
        <time>2012-02-04T09:07:40Z</time>
      </trkpt>
      <trkpt lat="48.63192" lon="6.15572">
        <ele>468</ele>
        <time>2012-02-04T09:07:44Z</time>
      </trkpt>
      <trkpt lat="48.63187" lon="6.15568">
        <ele>468</ele>
        <time>2012-02-04T09:07:48Z</time>
      </trkpt>
      <trkpt lat="48.63183" lon="6.15564">
        <ele>468</ele>
        <time>2012-02-04T09:07:51Z</time>
      </trkpt>
      <trkpt lat="48.63179" lon="6.15558">
        <ele>469</ele>
        <time>2012-02-04T09:07:55Z</time>
      </trkpt>
      <trkpt lat="48.63176" lon="6.15553">
        <ele>468</ele>
        <time>2012-02-04T09:08:03Z</time>
      </trkpt>
      <trkpt lat="48.63173" lon="6.15548">
        <ele>468</ele>
        <time>2012-02-04T09:08:56Z</time>
      </trkpt>
      <trkpt lat="48.63178" lon="6.15551">
        <ele>468</ele>
        <time>2012-02-04T09:09:18Z</time>
      </trkpt>
      <trkpt lat="48.63181" lon="6.15557">
        <ele>467</ele>
        <time>2012-02-04T09:09:31Z</time>
      </trkpt>
      <trkpt lat="48.63184" lon="6.15564">
        <ele>466</ele>
        <time>2012-02-04T09:09:35Z</time>
      </trkpt>
      <trkpt lat="48.63188" lon="6.15568">
        <ele>466</ele>
        <time>2012-02-04T09:09:39Z</time>
      </trkpt>
      <trkpt lat="48.63193" lon="6.15571">
        <ele>466</ele>
        <time>2012-02-04T09:09:43Z</time>
      </trkpt>
      <trkpt lat="48.63198" lon="6.15572">
        <ele>466</ele>
        <time>2012-02-04T09:09:47Z</time>
      </trkpt>
      <trkpt lat="48.63202" lon="6.15571">
        <ele>466</ele>
        <time>2012-02-04T09:09:51Z</time>
      </trkpt>
      <trkpt lat="48.63208" lon="6.15569">
        <ele>466</ele>
        <time>2012-02-04T09:09:56Z</time>
      </trkpt>
      <trkpt lat="48.63211" lon="6.15564">
        <ele>466</ele>
        <time>2012-02-04T09:10:00Z</time>
      </trkpt>
      <trkpt lat="48.63213" lon="6.15556">
        <ele>466</ele>
        <time>2012-02-04T09:10:04Z</time>
      </trkpt>
      <trkpt lat="48.63215" lon="6.15549">
        <ele>466</ele>
        <time>2012-02-04T09:10:08Z</time>
      </trkpt>
      <trkpt lat="48.63217" lon="6.15542">
        <ele>466</ele>
        <time>2012-02-04T09:10:12Z</time>
      </trkpt>
      <trkpt lat="48.63219" lon="6.15535">
        <ele>466</ele>
        <time>2012-02-04T09:10:16Z</time>
      </trkpt>
      <trkpt lat="48.63221" lon="6.15528">
        <ele>466</ele>
        <time>2012-02-04T09:10:20Z</time>
      </trkpt>
      <trkpt lat="48.63223" lon="6.1552">
        <ele>466</ele>
        <time>2012-02-04T09:10:24Z</time>
      </trkpt>
      <trkpt lat="48.63224" lon="6.15513">
        <ele>466</ele>
        <time>2012-02-04T09:10:28Z</time>
      </trkpt>
      <trkpt lat="48.63221" lon="6.15507">
        <ele>466</ele>
        <time>2012-02-04T09:10:40Z</time>
      </trkpt>
      <trkpt lat="48.63219" lon="6.15501">
        <ele>466</ele>
        <time>2012-02-04T09:11:07Z</time>
      </trkpt>
      <trkpt lat="48.6322" lon="6.15508">
        <ele>465</ele>
        <time>2012-02-04T09:11:54Z</time>
      </trkpt>
      <trkpt lat="48.63225" lon="6.15508">
        <ele>465</ele>
        <time>2012-02-04T09:11:58Z</time>
      </trkpt>
      <trkpt lat="48.63229" lon="6.15504">
        <ele>465</ele>
        <time>2012-02-04T09:12:01Z</time>
      </trkpt>
      <trkpt lat="48.63232" lon="6.15498">
        <ele>465</ele>
        <time>2012-02-04T09:12:04Z</time>
      </trkpt>
      <trkpt lat="48.63236" lon="6.15492">
        <ele>465</ele>
        <time>2012-02-04T09:12:08Z</time>
      </trkpt>
      <trkpt lat="48.63241" lon="6.15486">
        <ele>465</ele>
        <time>2012-02-04T09:12:12Z</time>
      </trkpt>
      <trkpt lat="48.63246" lon="6.15481">
        <ele>465</ele>
        <time>2012-02-04T09:12:16Z</time>
      </trkpt>
      <trkpt lat="48.63249" lon="6.15477">
        <ele>465</ele>
        <time>2012-02-04T09:12:19Z</time>
      </trkpt>
      <trkpt lat="48.63253" lon="6.15474">
        <ele>465</ele>
        <time>2012-02-04T09:12:22Z</time>
      </trkpt>
      <trkpt lat="48.63257" lon="6.1547">
        <ele>464</ele>
        <time>2012-02-04T09:12:25Z</time>
      </trkpt>
      <trkpt lat="48.63262" lon="6.15464">
        <ele>464</ele>
        <time>2012-02-04T09:12:29Z</time>
      </trkpt>
      <trkpt lat="48.63265" lon="6.1546">
        <ele>464</ele>
        <time>2012-02-04T09:12:32Z</time>
      </trkpt>
      <trkpt lat="48.63269" lon="6.15456">
        <ele>464</ele>
        <time>2012-02-04T09:12:35Z</time>
      </trkpt>
      <trkpt lat="48.63272" lon="6.15451">
        <ele>464</ele>
        <time>2012-02-04T09:12:38Z</time>
      </trkpt>
      <trkpt lat="48.63277" lon="6.15445">
        <ele>464</ele>
        <time>2012-02-04T09:12:42Z</time>
      </trkpt>
      <trkpt lat="48.6328" lon="6.15442">
        <ele>463</ele>
        <time>2012-02-04T09:12:50Z</time>
      </trkpt>
      <trkpt lat="48.63283" lon="6.15436">
        <ele>463</ele>
        <time>2012-02-04T09:12:53Z</time>
      </trkpt>
      <trkpt lat="48.63286" lon="6.15431">
        <ele>463</ele>
        <time>2012-02-04T09:12:56Z</time>
      </trkpt>
      <trkpt lat="48.63288" lon="6.15425">
        <ele>462</ele>
        <time>2012-02-04T09:12:59Z</time>
      </trkpt>
      <trkpt lat="48.63291" lon="6.15419">
        <ele>462</ele>
        <time>2012-02-04T09:13:02Z</time>
      </trkpt>
      <trkpt lat="48.63294" lon="6.15413">
        <ele>462</ele>
        <time>2012-02-04T09:13:05Z</time>
      </trkpt>
      <trkpt lat="48.63296" lon="6.15407">
        <ele>462</ele>
        <time>2012-02-04T09:13:08Z</time>
      </trkpt>
      <trkpt lat="48.63298" lon="6.15401">
        <ele>461</ele>
        <time>2012-02-04T09:13:11Z</time>
      </trkpt>
      <trkpt lat="48.63302" lon="6.15394">
        <ele>461</ele>
        <time>2012-02-04T09:13:15Z</time>
      </trkpt>
      <trkpt lat="48.63305" lon="6.15387">
        <ele>461</ele>
        <time>2012-02-04T09:13:19Z</time>
      </trkpt>
      <trkpt lat="48.63308" lon="6.15379">
        <ele>460</ele>
        <time>2012-02-04T09:13:23Z</time>
      </trkpt>
      <trkpt lat="48.63311" lon="6.15372">
        <ele>460</ele>
        <time>2012-02-04T09:13:27Z</time>
      </trkpt>
      <trkpt lat="48.63313" lon="6.15366">
        <ele>460</ele>
        <time>2012-02-04T09:13:31Z</time>
      </trkpt>
      <trkpt lat="48.63317" lon="6.15371">
        <ele>459</ele>
        <time>2012-02-04T09:14:49Z</time>
      </trkpt>
      <trkpt lat="48.63319" lon="6.15364">
        <ele>458</ele>
        <time>2012-02-04T09:15:04Z</time>
      </trkpt>
      <trkpt lat="48.63322" lon="6.15356">
        <ele>458</ele>
        <time>2012-02-04T09:15:08Z</time>
      </trkpt>
      <trkpt lat="48.63324" lon="6.1535">
        <ele>458</ele>
        <time>2012-02-04T09:15:11Z</time>
      </trkpt>
      <trkpt lat="48.63327" lon="6.15343">
        <ele>458</ele>
        <time>2012-02-04T09:15:15Z</time>
      </trkpt>
      <trkpt lat="48.6333" lon="6.15336">
        <ele>458</ele>
        <time>2012-02-04T09:15:19Z</time>
      </trkpt>
      <trkpt lat="48.63333" lon="6.15329">
        <ele>458</ele>
        <time>2012-02-04T09:15:23Z</time>
      </trkpt>
      <trkpt lat="48.63336" lon="6.15321">
        <ele>458</ele>
        <time>2012-02-04T09:15:27Z</time>
      </trkpt>
      <trkpt lat="48.63339" lon="6.15314">
        <ele>458</ele>
        <time>2012-02-04T09:15:31Z</time>
      </trkpt>
      <trkpt lat="48.63342" lon="6.15308">
        <ele>458</ele>
        <time>2012-02-04T09:15:35Z</time>
      </trkpt>
      <trkpt lat="48.63346" lon="6.15302">
        <ele>458</ele>
        <time>2012-02-04T09:15:39Z</time>
      </trkpt>
      <trkpt lat="48.63349" lon="6.15295">
        <ele>458</ele>
        <time>2012-02-04T09:15:43Z</time>
      </trkpt>
      <trkpt lat="48.63351" lon="6.15289">
        <ele>457</ele>
        <time>2012-02-04T09:15:47Z</time>
      </trkpt>
      <trkpt lat="48.63354" lon="6.15283">
        <ele>457</ele>
        <time>2012-02-04T09:16:01Z</time>
      </trkpt>
      <trkpt lat="48.63358" lon="6.15277">
        <ele>457</ele>
        <time>2012-02-04T09:16:05Z</time>
      </trkpt>
      <trkpt lat="48.63361" lon="6.15272">
        <ele>457</ele>
        <time>2012-02-04T09:16:08Z</time>
      </trkpt>
      <trkpt lat="48.63365" lon="6.15265">
        <ele>457</ele>
        <time>2012-02-04T09:16:12Z</time>
      </trkpt>
      <trkpt lat="48.63368" lon="6.1526">
        <ele>457</ele>
        <time>2012-02-04T09:16:16Z</time>
      </trkpt>
      <trkpt lat="48.63372" lon="6.15255">
        <ele>457</ele>
        <time>2012-02-04T09:16:21Z</time>
      </trkpt>
      <trkpt lat="48.63371" lon="6.15262">
        <ele>457</ele>
        <time>2012-02-04T09:17:30Z</time>
      </trkpt>
      <trkpt lat="48.63376" lon="6.15258">
        <ele>457</ele>
        <time>2012-02-04T09:17:44Z</time>
      </trkpt>
      <trkpt lat="48.6338" lon="6.15256">
        <ele>458</ele>
        <time>2012-02-04T09:18:56Z</time>
      </trkpt>
      <trkpt lat="48.63386" lon="6.15257">
        <ele>458</ele>
        <time>2012-02-04T09:19:00Z</time>
      </trkpt>
      <trkpt lat="48.63391" lon="6.15259">
        <ele>458</ele>
        <time>2012-02-04T09:19:04Z</time>
      </trkpt>
      <trkpt lat="48.63396" lon="6.15262">
        <ele>458</ele>
        <time>2012-02-04T09:19:08Z</time>
      </trkpt>
      <trkpt lat="48.63402" lon="6.15264">
        <ele>458</ele>
        <time>2012-02-04T09:19:13Z</time>
      </trkpt>
      <trkpt lat="48.63407" lon="6.15267">
        <ele>457</ele>
        <time>2012-02-04T09:19:17Z</time>
      </trkpt>
      <trkpt lat="48.63411" lon="6.15269">
        <ele>457</ele>
        <time>2012-02-04T09:19:20Z</time>
      </trkpt>
      <trkpt lat="48.63416" lon="6.1527">
        <ele>457</ele>
        <time>2012-02-04T09:19:23Z</time>
      </trkpt>
      <trkpt lat="48.6342" lon="6.15273">
        <ele>457</ele>
        <time>2012-02-04T09:19:26Z</time>
      </trkpt>
      <trkpt lat="48.63425" lon="6.15275">
        <ele>457</ele>
        <time>2012-02-04T09:19:29Z</time>
      </trkpt>
      <trkpt lat="48.6343" lon="6.15277">
        <ele>456</ele>
        <time>2012-02-04T09:19:33Z</time>
      </trkpt>
      <trkpt lat="48.63435" lon="6.15279">
        <ele>456</ele>
        <time>2012-02-04T09:19:37Z</time>
      </trkpt>
      <trkpt lat="48.63439" lon="6.1528">
        <ele>456</ele>
        <time>2012-02-04T09:19:41Z</time>
      </trkpt>
      <trkpt lat="48.63444" lon="6.15282">
        <ele>455</ele>
        <time>2012-02-04T09:19:45Z</time>
      </trkpt>
      <trkpt lat="48.63449" lon="6.15284">
        <ele>455</ele>
        <time>2012-02-04T09:19:49Z</time>
      </trkpt>
      <trkpt lat="48.63454" lon="6.15286">
        <ele>454</ele>
        <time>2012-02-04T09:19:53Z</time>
      </trkpt>
      <trkpt lat="48.63459" lon="6.15286">
        <ele>454</ele>
        <time>2012-02-04T09:19:56Z</time>
      </trkpt>
      <trkpt lat="48.63463" lon="6.15287">
        <ele>454</ele>
        <time>2012-02-04T09:19:59Z</time>
      </trkpt>
      <trkpt lat="48.63469" lon="6.15288">
        <ele>453</ele>
        <time>2012-02-04T09:20:03Z</time>
      </trkpt>
      <trkpt lat="48.63474" lon="6.15289">
        <ele>453</ele>
        <time>2012-02-04T09:20:07Z</time>
      </trkpt>
      <trkpt lat="48.6348" lon="6.1529">
        <ele>453</ele>
        <time>2012-02-04T09:20:11Z</time>
      </trkpt>
      <trkpt lat="48.63485" lon="6.1529">
        <ele>452</ele>
        <time>2012-02-04T09:20:15Z</time>
      </trkpt>
      <trkpt lat="48.6349" lon="6.1529">
        <ele>452</ele>
        <time>2012-02-04T09:20:19Z</time>
      </trkpt>
      <trkpt lat="48.63495" lon="6.15291">
        <ele>452</ele>
        <time>2012-02-04T09:20:23Z</time>
      </trkpt>
      <trkpt lat="48.635" lon="6.15292">
        <ele>452</ele>
        <time>2012-02-04T09:20:27Z</time>
      </trkpt>
      <trkpt lat="48.63505" lon="6.15292">
        <ele>452</ele>
        <time>2012-02-04T09:20:31Z</time>
      </trkpt>
      <trkpt lat="48.6351" lon="6.15295">
        <ele>452</ele>
        <time>2012-02-04T09:20:35Z</time>
      </trkpt>
      <trkpt lat="48.63513" lon="6.153">
        <ele>452</ele>
        <time>2012-02-04T09:20:47Z</time>
      </trkpt>
      <trkpt lat="48.63517" lon="6.15304">
        <ele>451</ele>
        <time>2012-02-04T09:21:09Z</time>
      </trkpt>
      <trkpt lat="48.63518" lon="6.15311">
        <ele>452</ele>
        <time>2012-02-04T09:21:36Z</time>
      </trkpt>
      <trkpt lat="48.63521" lon="6.1532">
        <ele>452</ele>
        <time>2012-02-04T09:21:42Z</time>
      </trkpt>
      <trkpt lat="48.63523" lon="6.15326">
        <ele>452</ele>
        <time>2012-02-04T09:21:46Z</time>
      </trkpt>
      <trkpt lat="48.63526" lon="6.15334">
        <ele>452</ele>
        <time>2012-02-04T09:21:50Z</time>
      </trkpt>
      <trkpt lat="48.63528" lon="6.15341">
        <ele>452</ele>
        <time>2012-02-04T09:21:54Z</time>
      </trkpt>
      <trkpt lat="48.6353" lon="6.15347">
        <ele>452</ele>
        <time>2012-02-04T09:21:57Z</time>
      </trkpt>
      <trkpt lat="48.63533" lon="6.15354">
        <ele>452</ele>
        <time>2012-02-04T09:22:01Z</time>
      </trkpt>
      <trkpt lat="48.63536" lon="6.15362">
        <ele>452</ele>
        <time>2012-02-04T09:22:05Z</time>
      </trkpt>
      <trkpt lat="48.63539" lon="6.15369">
        <ele>452</ele>
        <time>2012-02-04T09:22:09Z</time>
      </trkpt>
      <trkpt lat="48.63542" lon="6.15375">
        <ele>452</ele>
        <time>2012-02-04T09:22:12Z</time>
      </trkpt>
      <trkpt lat="48.63544" lon="6.15381">
        <ele>453</ele>
        <time>2012-02-04T09:22:15Z</time>
      </trkpt>
      <trkpt lat="48.63546" lon="6.15389">
        <ele>453</ele>
        <time>2012-02-04T09:22:19Z</time>
      </trkpt>
      <trkpt lat="48.63548" lon="6.15397">
        <ele>453</ele>
        <time>2012-02-04T09:22:23Z</time>
      </trkpt>
      <trkpt lat="48.6355" lon="6.15405">
        <ele>454</ele>
        <time>2012-02-04T09:22:27Z</time>
      </trkpt>
      <trkpt lat="48.63551" lon="6.15412">
        <ele>454</ele>
        <time>2012-02-04T09:22:33Z</time>
      </trkpt>
      <trkpt lat="48.63553" lon="6.15418">
        <ele>453</ele>
        <time>2012-02-04T09:23:02Z</time>
      </trkpt>
      <trkpt lat="48.63555" lon="6.15426">
        <ele>454</ele>
        <time>2012-02-04T09:23:09Z</time>
      </trkpt>
      <trkpt lat="48.63553" lon="6.15432">
        <ele>453</ele>
        <time>2012-02-04T09:23:13Z</time>
      </trkpt>
      <trkpt lat="48.63549" lon="6.15434">
        <ele>453</ele>
        <time>2012-02-04T09:23:26Z</time>
      </trkpt>
      <trkpt lat="48.63554" lon="6.15437">
        <ele>453</ele>
        <time>2012-02-04T09:24:31Z</time>
      </trkpt>
      <trkpt lat="48.63556" lon="6.15443">
        <ele>453</ele>
        <time>2012-02-04T09:24:34Z</time>
      </trkpt>
      <trkpt lat="48.63558" lon="6.15449">
        <ele>453</ele>
        <time>2012-02-04T09:24:37Z</time>
      </trkpt>
      <trkpt lat="48.6356" lon="6.15457">
        <ele>453</ele>
        <time>2012-02-04T09:24:41Z</time>
      </trkpt>
      <trkpt lat="48.63562" lon="6.15464">
        <ele>453</ele>
        <time>2012-02-04T09:24:45Z</time>
      </trkpt>
      <trkpt lat="48.63564" lon="6.15471">
        <ele>452</ele>
        <time>2012-02-04T09:24:49Z</time>
      </trkpt>
      <trkpt lat="48.63565" lon="6.15478">
        <ele>452</ele>
        <time>2012-02-04T09:24:53Z</time>
      </trkpt>
      <trkpt lat="48.63565" lon="6.15485">
        <ele>452</ele>
        <time>2012-02-04T09:24:57Z</time>
      </trkpt>
      <trkpt lat="48.63566" lon="6.15492">
        <ele>452</ele>
        <time>2012-02-04T09:25:01Z</time>
      </trkpt>
      <trkpt lat="48.63568" lon="6.15498">
        <ele>452</ele>
        <time>2012-02-04T09:25:05Z</time>
      </trkpt>
      <trkpt lat="48.6357" lon="6.15505">
        <ele>452</ele>
        <time>2012-02-04T09:25:09Z</time>
      </trkpt>
      <trkpt lat="48.63572" lon="6.15513">
        <ele>452</ele>
        <time>2012-02-04T09:25:13Z</time>
      </trkpt>
      <trkpt lat="48.63574" lon="6.15521">
        <ele>452</ele>
        <time>2012-02-04T09:25:17Z</time>
      </trkpt>
      <trkpt lat="48.63575" lon="6.15529">
        <ele>452</ele>
        <time>2012-02-04T09:25:21Z</time>
      </trkpt>
      <trkpt lat="48.63577" lon="6.15537">
        <ele>452</ele>
        <time>2012-02-04T09:25:25Z</time>
      </trkpt>
      <trkpt lat="48.63579" lon="6.15545">
        <ele>452</ele>
        <time>2012-02-04T09:25:29Z</time>
      </trkpt>
      <trkpt lat="48.63581" lon="6.15552">
        <ele>452</ele>
        <time>2012-02-04T09:25:33Z</time>
      </trkpt>
      <trkpt lat="48.63583" lon="6.1556">
        <ele>452</ele>
        <time>2012-02-04T09:25:37Z</time>
      </trkpt>
      <trkpt lat="48.63585" lon="6.15568">
        <ele>452</ele>
        <time>2012-02-04T09:25:41Z</time>
      </trkpt>
      <trkpt lat="48.63586" lon="6.15575">
        <ele>452</ele>
        <time>2012-02-04T09:25:44Z</time>
      </trkpt>
      <trkpt lat="48.63588" lon="6.15582">
        <ele>452</ele>
        <time>2012-02-04T09:25:47Z</time>
      </trkpt>
      <trkpt lat="48.6359" lon="6.15588">
        <ele>452</ele>
        <time>2012-02-04T09:25:50Z</time>
      </trkpt>
      <trkpt lat="48.63592" lon="6.15594">
        <ele>452</ele>
        <time>2012-02-04T09:25:53Z</time>
      </trkpt>
      <trkpt lat="48.63594" lon="6.15602">
        <ele>452</ele>
        <time>2012-02-04T09:25:57Z</time>
      </trkpt>
      <trkpt lat="48.63596" lon="6.15611">
        <ele>452</ele>
        <time>2012-02-04T09:26:01Z</time>
      </trkpt>
      <trkpt lat="48.63598" lon="6.15617">
        <ele>453</ele>
        <time>2012-02-04T09:26:04Z</time>
      </trkpt>
      <trkpt lat="48.636" lon="6.15623">
        <ele>453</ele>
        <time>2012-02-04T09:26:07Z</time>
      </trkpt>
      <trkpt lat="48.63602" lon="6.15631">
        <ele>453</ele>
        <time>2012-02-04T09:26:11Z</time>
      </trkpt>
      <trkpt lat="48.63604" lon="6.15639">
        <ele>453</ele>
        <time>2012-02-04T09:26:15Z</time>
      </trkpt>
      <trkpt lat="48.63605" lon="6.15645">
        <ele>453</ele>
        <time>2012-02-04T09:26:18Z</time>
      </trkpt>
      <trkpt lat="48.63606" lon="6.15652">
        <ele>453</ele>
        <time>2012-02-04T09:26:21Z</time>
      </trkpt>
      <trkpt lat="48.63607" lon="6.15659">
        <ele>454</ele>
        <time>2012-02-04T09:26:24Z</time>
      </trkpt>
      <trkpt lat="48.63609" lon="6.15665">
        <ele>454</ele>
        <time>2012-02-04T09:26:27Z</time>
      </trkpt>
      <trkpt lat="48.6361" lon="6.15672">
        <ele>454</ele>
        <time>2012-02-04T09:26:30Z</time>
      </trkpt>
      <trkpt lat="48.63612" lon="6.15678">
        <ele>454</ele>
        <time>2012-02-04T09:26:33Z</time>
      </trkpt>
      <trkpt lat="48.63614" lon="6.15684">
        <ele>454</ele>
        <time>2012-02-04T09:26:36Z</time>
      </trkpt>
      <trkpt lat="48.63616" lon="6.15693">
        <ele>454</ele>
        <time>2012-02-04T09:26:40Z</time>
      </trkpt>
      <trkpt lat="48.63618" lon="6.15699">
        <ele>454</ele>
        <time>2012-02-04T09:26:43Z</time>
      </trkpt>
      <trkpt lat="48.6362" lon="6.15706">
        <ele>454</ele>
        <time>2012-02-04T09:26:46Z</time>
      </trkpt>
      <trkpt lat="48.63622" lon="6.15714">
        <ele>454</ele>
        <time>2012-02-04T09:26:50Z</time>
      </trkpt>
      <trkpt lat="48.63624" lon="6.15721">
        <ele>454</ele>
        <time>2012-02-04T09:26:54Z</time>
      </trkpt>
      <trkpt lat="48.63627" lon="6.15729">
        <ele>454</ele>
        <time>2012-02-04T09:26:58Z</time>
      </trkpt>
      <trkpt lat="48.63629" lon="6.15735">
        <ele>454</ele>
        <time>2012-02-04T09:27:01Z</time>
      </trkpt>
      <trkpt lat="48.6363" lon="6.15742">
        <ele>454</ele>
        <time>2012-02-04T09:27:04Z</time>
      </trkpt>
      <trkpt lat="48.63632" lon="6.15748">
        <ele>454</ele>
        <time>2012-02-04T09:27:07Z</time>
      </trkpt>
      <trkpt lat="48.6365" lon="6.15774">
        <ele>469</ele>
        <time>2012-02-04T09:27:16Z</time>
      </trkpt>
      <trkpt lat="48.6365" lon="6.15774">
        <ele>469</ele>
        <time>2012-02-04T09:27:16Z</time>
      </trkpt>
      <trkpt lat="48.6365" lon="6.15774">
        <ele>469</ele>
        <time>2012-02-04T09:27:26Z</time>
      </trkpt>
      <trkpt lat="48.63653" lon="6.15788">
        <ele>465</ele>
        <time>2012-02-04T09:27:27Z</time>
      </trkpt>
      <trkpt lat="48.63655" lon="6.15796">
        <ele>465</ele>
        <time>2012-02-04T09:27:30Z</time>
      </trkpt>
      <trkpt lat="48.63658" lon="6.15806">
        <ele>465</ele>
        <time>2012-02-04T09:27:35Z</time>
      </trkpt>
      <trkpt lat="48.6366" lon="6.15816">
        <ele>464</ele>
        <time>2012-02-04T09:27:43Z</time>
      </trkpt>
      <trkpt lat="48.63656" lon="6.15815">
        <ele>463</ele>
        <time>2012-02-04T09:28:01Z</time>
      </trkpt>
      <trkpt lat="48.6366" lon="6.15815">
        <ele>462</ele>
        <time>2012-02-04T09:29:26Z</time>
      </trkpt>
      <trkpt lat="48.63666" lon="6.15814">
        <ele>462</ele>
        <time>2012-02-04T09:29:30Z</time>
      </trkpt>
      <trkpt lat="48.63672" lon="6.15813">
        <ele>462</ele>
        <time>2012-02-04T09:29:34Z</time>
      </trkpt>
      <trkpt lat="48.63677" lon="6.15812">
        <ele>462</ele>
        <time>2012-02-04T09:29:37Z</time>
      </trkpt>
      <trkpt lat="48.63682" lon="6.15812">
        <ele>461</ele>
        <time>2012-02-04T09:29:40Z</time>
      </trkpt>
      <trkpt lat="48.63686" lon="6.15812">
        <ele>461</ele>
        <time>2012-02-04T09:29:43Z</time>
      </trkpt>
      <trkpt lat="48.63691" lon="6.15814">
        <ele>461</ele>
        <time>2012-02-04T09:29:46Z</time>
      </trkpt>
      <trkpt lat="48.63696" lon="6.15816">
        <ele>460</ele>
        <time>2012-02-04T09:29:49Z</time>
      </trkpt>
      <trkpt lat="48.63701" lon="6.15818">
        <ele>460</ele>
        <time>2012-02-04T09:29:53Z</time>
      </trkpt>
      <trkpt lat="48.63707" lon="6.1582">
        <ele>459</ele>
        <time>2012-02-04T09:29:57Z</time>
      </trkpt>
      <trkpt lat="48.63712" lon="6.15823">
        <ele>459</ele>
        <time>2012-02-04T09:30:01Z</time>
      </trkpt>
      <trkpt lat="48.63717" lon="6.15825">
        <ele>459</ele>
        <time>2012-02-04T09:30:04Z</time>
      </trkpt>
      <trkpt lat="48.63721" lon="6.15827">
        <ele>459</ele>
        <time>2012-02-04T09:30:07Z</time>
      </trkpt>
      <trkpt lat="48.63726" lon="6.15829">
        <ele>458</ele>
        <time>2012-02-04T09:30:10Z</time>
      </trkpt>
      <trkpt lat="48.6373" lon="6.1583">
        <ele>458</ele>
        <time>2012-02-04T09:30:13Z</time>
      </trkpt>
      <trkpt lat="48.63735" lon="6.15832">
        <ele>458</ele>
        <time>2012-02-04T09:30:16Z</time>
      </trkpt>
      <trkpt lat="48.63739" lon="6.15834">
        <ele>458</ele>
        <time>2012-02-04T09:30:19Z</time>
      </trkpt>
      <trkpt lat="48.63745" lon="6.15838">
        <ele>458</ele>
        <time>2012-02-04T09:30:23Z</time>
      </trkpt>
      <trkpt lat="48.63749" lon="6.15841">
        <ele>457</ele>
        <time>2012-02-04T09:30:26Z</time>
      </trkpt>
      <trkpt lat="48.63754" lon="6.15843">
        <ele>457</ele>
        <time>2012-02-04T09:30:29Z</time>
      </trkpt>
      <trkpt lat="48.63758" lon="6.15844">
        <ele>457</ele>
        <time>2012-02-04T09:30:32Z</time>
      </trkpt>
      <trkpt lat="48.63763" lon="6.15846">
        <ele>457</ele>
        <time>2012-02-04T09:30:35Z</time>
      </trkpt>
      <trkpt lat="48.63769" lon="6.15847">
        <ele>457</ele>
        <time>2012-02-04T09:30:39Z</time>
      </trkpt>
      <trkpt lat="48.63774" lon="6.15846">
        <ele>456</ele>
        <time>2012-02-04T09:30:43Z</time>
      </trkpt>
      <trkpt lat="48.6378" lon="6.15845">
        <ele>456</ele>
        <time>2012-02-04T09:30:47Z</time>
      </trkpt>
      <trkpt lat="48.63784" lon="6.15844">
        <ele>456</ele>
        <time>2012-02-04T09:30:50Z</time>
      </trkpt>
      <trkpt lat="48.6379" lon="6.15842">
        <ele>456</ele>
        <time>2012-02-04T09:30:53Z</time>
      </trkpt>
      <trkpt lat="48.63795" lon="6.1584">
        <ele>455</ele>
        <time>2012-02-04T09:30:56Z</time>
      </trkpt>
      <trkpt lat="48.638" lon="6.15838">
        <ele>455</ele>
        <time>2012-02-04T09:30:59Z</time>
      </trkpt>
      <trkpt lat="48.63805" lon="6.15837">
        <ele>454</ele>
        <time>2012-02-04T09:31:02Z</time>
      </trkpt>
      <trkpt lat="48.6381" lon="6.15837">
        <ele>454</ele>
        <time>2012-02-04T09:31:05Z</time>
      </trkpt>
      <trkpt lat="48.63815" lon="6.15835">
        <ele>453</ele>
        <time>2012-02-04T09:31:09Z</time>
      </trkpt>
      <trkpt lat="48.63821" lon="6.15835">
        <ele>453</ele>
        <time>2012-02-04T09:31:13Z</time>
      </trkpt>
      <trkpt lat="48.63826" lon="6.15834">
        <ele>452</ele>
        <time>2012-02-04T09:31:17Z</time>
      </trkpt>
      <trkpt lat="48.63831" lon="6.15834">
        <ele>452</ele>
        <time>2012-02-04T09:31:21Z</time>
      </trkpt>
      <trkpt lat="48.63836" lon="6.15834">
        <ele>452</ele>
        <time>2012-02-04T09:31:25Z</time>
      </trkpt>
      <trkpt lat="48.63842" lon="6.15834">
        <ele>451</ele>
        <time>2012-02-04T09:31:29Z</time>
      </trkpt>
      <trkpt lat="48.63846" lon="6.15834">
        <ele>451</ele>
        <time>2012-02-04T09:31:32Z</time>
      </trkpt>
      <trkpt lat="48.63851" lon="6.15834">
        <ele>451</ele>
        <time>2012-02-04T09:31:35Z</time>
      </trkpt>
      <trkpt lat="48.63856" lon="6.15833">
        <ele>450</ele>
        <time>2012-02-04T09:31:38Z</time>
      </trkpt>
      <trkpt lat="48.6386" lon="6.15833">
        <ele>450</ele>
        <time>2012-02-04T09:31:41Z</time>
      </trkpt>
      <trkpt lat="48.63865" lon="6.15834">
        <ele>450</ele>
        <time>2012-02-04T09:31:44Z</time>
      </trkpt>
      <trkpt lat="48.6387" lon="6.15834">
        <ele>449</ele>
        <time>2012-02-04T09:31:48Z</time>
      </trkpt>
      <trkpt lat="48.63875" lon="6.15835">
        <ele>449</ele>
        <time>2012-02-04T09:31:52Z</time>
      </trkpt>
      <trkpt lat="48.6388" lon="6.15834">
        <ele>449</ele>
        <time>2012-02-04T09:31:56Z</time>
      </trkpt>
      <trkpt lat="48.63885" lon="6.15834">
        <ele>449</ele>
        <time>2012-02-04T09:32:00Z</time>
      </trkpt>
      <trkpt lat="48.6389" lon="6.15832">
        <ele>449</ele>
        <time>2012-02-04T09:32:03Z</time>
      </trkpt>
      <trkpt lat="48.63894" lon="6.1583">
        <ele>449</ele>
        <time>2012-02-04T09:32:06Z</time>
      </trkpt>
      <trkpt lat="48.639" lon="6.15829">
        <ele>449</ele>
        <time>2012-02-04T09:32:10Z</time>
      </trkpt>
      <trkpt lat="48.63905" lon="6.15828">
        <ele>448</ele>
        <time>2012-02-04T09:32:14Z</time>
      </trkpt>
      <trkpt lat="48.6391" lon="6.15827">
        <ele>448</ele>
        <time>2012-02-04T09:32:17Z</time>
      </trkpt>
      <trkpt lat="48.63914" lon="6.15826">
        <ele>448</ele>
        <time>2012-02-04T09:32:20Z</time>
      </trkpt>
      <trkpt lat="48.63919" lon="6.15826">
        <ele>448</ele>
        <time>2012-02-04T09:32:23Z</time>
      </trkpt>
      <trkpt lat="48.63925" lon="6.15826">
        <ele>448</ele>
        <time>2012-02-04T09:32:27Z</time>
      </trkpt>
      <trkpt lat="48.6393" lon="6.15825">
        <ele>448</ele>
        <time>2012-02-04T09:32:31Z</time>
      </trkpt>
      <trkpt lat="48.63936" lon="6.15824">
        <ele>448</ele>
        <time>2012-02-04T09:32:35Z</time>
      </trkpt>
      <trkpt lat="48.63941" lon="6.15823">
        <ele>448</ele>
        <time>2012-02-04T09:32:38Z</time>
      </trkpt>
      <trkpt lat="48.63945" lon="6.15822">
        <ele>447</ele>
        <time>2012-02-04T09:32:41Z</time>
      </trkpt>
      <trkpt lat="48.63951" lon="6.15822">
        <ele>447</ele>
        <time>2012-02-04T09:32:45Z</time>
      </trkpt>
      <trkpt lat="48.63956" lon="6.15823">
        <ele>447</ele>
        <time>2012-02-04T09:32:52Z</time>
      </trkpt>
      <trkpt lat="48.6396" lon="6.15823">
        <ele>447</ele>
        <time>2012-02-04T09:32:57Z</time>
      </trkpt>
      <trkpt lat="48.63966" lon="6.15823">
        <ele>447</ele>
        <time>2012-02-04T09:33:01Z</time>
      </trkpt>
      <trkpt lat="48.63971" lon="6.15823">
        <ele>447</ele>
        <time>2012-02-04T09:33:05Z</time>
      </trkpt>
      <trkpt lat="48.63976" lon="6.15824">
        <ele>446</ele>
        <time>2012-02-04T09:33:08Z</time>
      </trkpt>
      <trkpt lat="48.63982" lon="6.15825">
        <ele>446</ele>
        <time>2012-02-04T09:33:12Z</time>
      </trkpt>
      <trkpt lat="48.63987" lon="6.15826">
        <ele>446</ele>
        <time>2012-02-04T09:33:16Z</time>
      </trkpt>
      <trkpt lat="48.63992" lon="6.15828">
        <ele>446</ele>
        <time>2012-02-04T09:33:19Z</time>
      </trkpt>
      <trkpt lat="48.63996" lon="6.15824">
        <ele>446</ele>
        <time>2012-02-04T09:33:40Z</time>
      </trkpt>
      <trkpt lat="48.63999" lon="6.15829">
        <ele>445</ele>
        <time>2012-02-04T09:33:49Z</time>
      </trkpt>
      <trkpt lat="48.64001" lon="6.15835">
        <ele>453</ele>
        <time>2012-02-04T09:34:14Z</time>
      </trkpt>
      <trkpt lat="48.64001" lon="6.15835">
        <ele>453</ele>
        <time>2012-02-04T09:34:14Z</time>
      </trkpt>
      <trkpt lat="48.64001" lon="6.15835">
        <ele>453</ele>
        <time>2012-02-04T09:34:15Z</time>
      </trkpt>
      <trkpt lat="48.64" lon="6.15822">
        <ele>462</ele>
        <time>2012-02-04T09:34:16Z</time>
      </trkpt>
      <trkpt lat="48.64" lon="6.15822">
        <ele>462</ele>
        <time>2012-02-04T09:34:16Z</time>
      </trkpt>
      <trkpt lat="48.64" lon="6.15822">
        <ele>462</ele>
        <time>2012-02-04T09:34:28Z</time>
      </trkpt>
      <trkpt lat="48.64" lon="6.15829">
        <ele>452</ele>
        <time>2012-02-04T09:34:29Z</time>
      </trkpt>
      <trkpt lat="48.64" lon="6.15829">
        <ele>452</ele>
        <time>2012-02-04T09:34:29Z</time>
      </trkpt>
      <trkpt lat="48.64" lon="6.15829">
        <ele>452</ele>
        <time>2012-02-04T09:34:41Z</time>
      </trkpt>
      <trkpt lat="48.64003" lon="6.15834">
        <ele>454</ele>
        <time>2012-02-04T09:35:00Z</time>
      </trkpt>
      <trkpt lat="48.64005" lon="6.15841">
        <ele>454</ele>
        <time>2012-02-04T09:35:16Z</time>
      </trkpt>
      <trkpt lat="48.64008" lon="6.15846">
        <ele>454</ele>
        <time>2012-02-04T09:35:20Z</time>
      </trkpt>
      <trkpt lat="48.64011" lon="6.15851">
        <ele>454</ele>
        <time>2012-02-04T09:35:24Z</time>
      </trkpt>
      <trkpt lat="48.64014" lon="6.15856">
        <ele>453</ele>
        <time>2012-02-04T09:35:29Z</time>
      </trkpt>
      <trkpt lat="48.64017" lon="6.15862">
        <ele>453</ele>
        <time>2012-02-04T09:35:33Z</time>
      </trkpt>
      <trkpt lat="48.64022" lon="6.15866">
        <ele>452</ele>
        <time>2012-02-04T09:35:50Z</time>
      </trkpt>
      <trkpt lat="48.64026" lon="6.15871">
        <ele>452</ele>
        <time>2012-02-04T09:35:54Z</time>
      </trkpt>
      <trkpt lat="48.6403" lon="6.15877">
        <ele>452</ele>
        <time>2012-02-04T09:35:58Z</time>
      </trkpt>
      <trkpt lat="48.64032" lon="6.15884">
        <ele>452</ele>
        <time>2012-02-04T09:36:02Z</time>
      </trkpt>
      <trkpt lat="48.64036" lon="6.1589">
        <ele>452</ele>
        <time>2012-02-04T09:36:06Z</time>
      </trkpt>
      <trkpt lat="48.64039" lon="6.15896">
        <ele>451</ele>
        <time>2012-02-04T09:36:10Z</time>
      </trkpt>
      <trkpt lat="48.64043" lon="6.15902">
        <ele>451</ele>
        <time>2012-02-04T09:36:14Z</time>
      </trkpt>
      <trkpt lat="48.64047" lon="6.15908">
        <ele>451</ele>
        <time>2012-02-04T09:36:18Z</time>
      </trkpt>
      <trkpt lat="48.64051" lon="6.15915">
        <ele>451</ele>
        <time>2012-02-04T09:36:22Z</time>
      </trkpt>
      <trkpt lat="48.64054" lon="6.1592">
        <ele>451</ele>
        <time>2012-02-04T09:36:25Z</time>
      </trkpt>
      <trkpt lat="48.64058" lon="6.15925">
        <ele>450</ele>
        <time>2012-02-04T09:36:29Z</time>
      </trkpt>
      <trkpt lat="48.64061" lon="6.15931">
        <ele>450</ele>
        <time>2012-02-04T09:36:32Z</time>
      </trkpt>
      <trkpt lat="48.64064" lon="6.15937">
        <ele>450</ele>
        <time>2012-02-04T09:36:35Z</time>
      </trkpt>
      <trkpt lat="48.64066" lon="6.15944">
        <ele>450</ele>
        <time>2012-02-04T09:36:39Z</time>
      </trkpt>
      <trkpt lat="48.64069" lon="6.15952">
        <ele>450</ele>
        <time>2012-02-04T09:36:43Z</time>
      </trkpt>
      <trkpt lat="48.64072" lon="6.1596">
        <ele>450</ele>
        <time>2012-02-04T09:36:47Z</time>
      </trkpt>
      <trkpt lat="48.64074" lon="6.15968">
        <ele>450</ele>
        <time>2012-02-04T09:36:51Z</time>
      </trkpt>
      <trkpt lat="48.64077" lon="6.15975">
        <ele>449</ele>
        <time>2012-02-04T09:36:55Z</time>
      </trkpt>
      <trkpt lat="48.6408" lon="6.15983">
        <ele>449</ele>
        <time>2012-02-04T09:36:59Z</time>
      </trkpt>
      <trkpt lat="48.64083" lon="6.15991">
        <ele>449</ele>
        <time>2012-02-04T09:37:03Z</time>
      </trkpt>
      <trkpt lat="48.64085" lon="6.15998">
        <ele>449</ele>
        <time>2012-02-04T09:37:07Z</time>
      </trkpt>
      <trkpt lat="48.64088" lon="6.16005">
        <ele>448</ele>
        <time>2012-02-04T09:37:12Z</time>
      </trkpt>
      <trkpt lat="48.64091" lon="6.16012">
        <ele>448</ele>
        <time>2012-02-04T09:37:16Z</time>
      </trkpt>
      <trkpt lat="48.64093" lon="6.16018">
        <ele>448</ele>
        <time>2012-02-04T09:37:19Z</time>
      </trkpt>
      <trkpt lat="48.64095" lon="6.16024">
        <ele>448</ele>
        <time>2012-02-04T09:37:22Z</time>
      </trkpt>
      <trkpt lat="48.64098" lon="6.16031">
        <ele>448</ele>
        <time>2012-02-04T09:37:26Z</time>
      </trkpt>
      <trkpt lat="48.64101" lon="6.16039">
        <ele>447</ele>
        <time>2012-02-04T09:37:30Z</time>
      </trkpt>
      <trkpt lat="48.64104" lon="6.16046">
        <ele>447</ele>
        <time>2012-02-04T09:37:34Z</time>
      </trkpt>
      <trkpt lat="48.64108" lon="6.16053">
        <ele>447</ele>
        <time>2012-02-04T09:37:38Z</time>
      </trkpt>
      <trkpt lat="48.64112" lon="6.16059">
        <ele>446</ele>
        <time>2012-02-04T09:37:42Z</time>
      </trkpt>
      <trkpt lat="48.64116" lon="6.16064">
        <ele>446</ele>
        <time>2012-02-04T09:37:46Z</time>
      </trkpt>
      <trkpt lat="48.64119" lon="6.1607">
        <ele>446</ele>
        <time>2012-02-04T09:37:52Z</time>
      </trkpt>
      <trkpt lat="48.64123" lon="6.16076">
        <ele>446</ele>
        <time>2012-02-04T09:37:57Z</time>
      </trkpt>
      <trkpt lat="48.64126" lon="6.16082">
        <ele>445</ele>
        <time>2012-02-04T09:38:01Z</time>
      </trkpt>
      <trkpt lat="48.6413" lon="6.16088">
        <ele>445</ele>
        <time>2012-02-04T09:38:05Z</time>
      </trkpt>
      <trkpt lat="48.64135" lon="6.16092">
        <ele>445</ele>
        <time>2012-02-04T09:38:09Z</time>
      </trkpt>
      <trkpt lat="48.64146" lon="6.16072">
        <ele>445</ele>
        <time>2012-02-04T09:38:14Z</time>
      </trkpt>
      <trkpt lat="48.64146" lon="6.16072">
        <ele>445</ele>
        <time>2012-02-04T09:38:14Z</time>
      </trkpt>
      <trkpt lat="48.64146" lon="6.16072">
        <ele>445</ele>
        <time>2012-02-04T09:38:22Z</time>
      </trkpt>
      <trkpt lat="48.64152" lon="6.16076">
        <ele>439</ele>
        <time>2012-02-04T09:38:23Z</time>
      </trkpt>
      <trkpt lat="48.64152" lon="6.16076">
        <ele>439</ele>
        <time>2012-02-04T09:38:23Z</time>
      </trkpt>
      <trkpt lat="48.64152" lon="6.16076">
        <ele>439</ele>
        <time>2012-02-04T09:38:24Z</time>
      </trkpt>
      <trkpt lat="48.64157" lon="6.16074">
        <ele>438</ele>
        <time>2012-02-04T09:38:27Z</time>
      </trkpt>
      <trkpt lat="48.64161" lon="6.16072">
        <ele>438</ele>
        <time>2012-02-04T09:38:31Z</time>
      </trkpt>
      <trkpt lat="48.64166" lon="6.16069">
        <ele>438</ele>
        <time>2012-02-04T09:38:35Z</time>
      </trkpt>
      <trkpt lat="48.64171" lon="6.16067">
        <ele>438</ele>
        <time>2012-02-04T09:38:39Z</time>
      </trkpt>
      <trkpt lat="48.64176" lon="6.16064">
        <ele>438</ele>
        <time>2012-02-04T09:38:44Z</time>
      </trkpt>
      <trkpt lat="48.64181" lon="6.16063">
        <ele>438</ele>
        <time>2012-02-04T09:38:48Z</time>
      </trkpt>
      <trkpt lat="48.64186" lon="6.16062">
        <ele>438</ele>
        <time>2012-02-04T09:38:52Z</time>
      </trkpt>
      <trkpt lat="48.64191" lon="6.1606">
        <ele>438</ele>
        <time>2012-02-04T09:38:56Z</time>
      </trkpt>
      <trkpt lat="48.64196" lon="6.16057">
        <ele>438</ele>
        <time>2012-02-04T09:39:00Z</time>
      </trkpt>
      <trkpt lat="48.64201" lon="6.16055">
        <ele>438</ele>
        <time>2012-02-04T09:39:04Z</time>
      </trkpt>
      <trkpt lat="48.64207" lon="6.16053">
        <ele>438</ele>
        <time>2012-02-04T09:39:08Z</time>
      </trkpt>
      <trkpt lat="48.64212" lon="6.16051">
        <ele>438</ele>
        <time>2012-02-04T09:39:12Z</time>
      </trkpt>
      <trkpt lat="48.64216" lon="6.16049">
        <ele>438</ele>
        <time>2012-02-04T09:39:16Z</time>
      </trkpt>
      <trkpt lat="48.64221" lon="6.16047">
        <ele>438</ele>
        <time>2012-02-04T09:39:20Z</time>
      </trkpt>
      <trkpt lat="48.64226" lon="6.16046">
        <ele>438</ele>
        <time>2012-02-04T09:39:24Z</time>
      </trkpt>
      <trkpt lat="48.6423" lon="6.16044">
        <ele>438</ele>
        <time>2012-02-04T09:39:28Z</time>
      </trkpt>
      <trkpt lat="48.64235" lon="6.16042">
        <ele>439</ele>
        <time>2012-02-04T09:39:32Z</time>
      </trkpt>
      <trkpt lat="48.6424" lon="6.16041">
        <ele>439</ele>
        <time>2012-02-04T09:39:36Z</time>
      </trkpt>
      <trkpt lat="48.64244" lon="6.16041">
        <ele>439</ele>
        <time>2012-02-04T09:39:40Z</time>
      </trkpt>
      <trkpt lat="48.64249" lon="6.16041">
        <ele>439</ele>
        <time>2012-02-04T09:39:47Z</time>
      </trkpt>
      <trkpt lat="48.64252" lon="6.16036">
        <ele>439</ele>
        <time>2012-02-04T09:39:52Z</time>
      </trkpt>
      <trkpt lat="48.64257" lon="6.16036">
        <ele>439</ele>
        <time>2012-02-04T09:40:31Z</time>
      </trkpt>
      <trkpt lat="48.64263" lon="6.16026">
        <ele>448</ele>
        <time>2012-02-04T09:41:14Z</time>
      </trkpt>
      <trkpt lat="48.64262" lon="6.16041">
        <ele>444</ele>
        <time>2012-02-04T09:41:15Z</time>
      </trkpt>
      <trkpt lat="48.64262" lon="6.16041">
        <ele>444</ele>
        <time>2012-02-04T09:41:15Z</time>
      </trkpt>
      <trkpt lat="48.64262" lon="6.16041">
        <ele>444</ele>
        <time>2012-02-04T09:41:25Z</time>
      </trkpt>
      <trkpt lat="48.64263" lon="6.16033">
        <ele>441</ele>
        <time>2012-02-04T09:41:26Z</time>
      </trkpt>
      <trkpt lat="48.64263" lon="6.16033">
        <ele>441</ele>
        <time>2012-02-04T09:41:26Z</time>
      </trkpt>
      <trkpt lat="48.64263" lon="6.16033">
        <ele>441</ele>
        <time>2012-02-04T09:41:41Z</time>
      </trkpt>
      <trkpt lat="48.64266" lon="6.16038">
        <ele>442</ele>
        <time>2012-02-04T09:41:48Z</time>
      </trkpt>
      <trkpt lat="48.64261" lon="6.16038">
        <ele>442</ele>
        <time>2012-02-04T09:41:58Z</time>
      </trkpt>
      <trkpt lat="48.64265" lon="6.1604">
        <ele>440</ele>
        <time>2012-02-04T09:42:35Z</time>
      </trkpt>
      <trkpt lat="48.64269" lon="6.16043">
        <ele>440</ele>
        <time>2012-02-04T09:42:41Z</time>
      </trkpt>
      <trkpt lat="48.64274" lon="6.16047">
        <ele>440</ele>
        <time>2012-02-04T09:42:47Z</time>
      </trkpt>
      <trkpt lat="48.64278" lon="6.16048">
        <ele>440</ele>
        <time>2012-02-04T09:42:59Z</time>
      </trkpt>
      <trkpt lat="48.64282" lon="6.16051">
        <ele>439</ele>
        <time>2012-02-04T09:44:27Z</time>
      </trkpt>
      <trkpt lat="48.64287" lon="6.16052">
        <ele>439</ele>
        <time>2012-02-04T09:44:31Z</time>
      </trkpt>
      <trkpt lat="48.64292" lon="6.16054">
        <ele>439</ele>
        <time>2012-02-04T09:44:35Z</time>
      </trkpt>
      <trkpt lat="48.64297" lon="6.16056">
        <ele>439</ele>
        <time>2012-02-04T09:44:39Z</time>
      </trkpt>
      <trkpt lat="48.64302" lon="6.1606">
        <ele>439</ele>
        <time>2012-02-04T09:44:43Z</time>
      </trkpt>
      <trkpt lat="48.64305" lon="6.16047">
        <ele>449</ele>
        <time>2012-02-04T09:45:17Z</time>
      </trkpt>
      <trkpt lat="48.64305" lon="6.16047">
        <ele>449</ele>
        <time>2012-02-04T09:45:17Z</time>
      </trkpt>
      <trkpt lat="48.64305" lon="6.16047">
        <ele>449</ele>
        <time>2012-02-04T09:45:24Z</time>
      </trkpt>
      <trkpt lat="48.64301" lon="6.16055">
        <ele>449</ele>
        <time>2012-02-04T09:45:25Z</time>
      </trkpt>
      <trkpt lat="48.64301" lon="6.16055">
        <ele>449</ele>
        <time>2012-02-04T09:45:25Z</time>
      </trkpt>
      <trkpt lat="48.64301" lon="6.16055">
        <ele>449</ele>
        <time>2012-02-04T09:45:33Z</time>
      </trkpt>
      <trkpt lat="48.643" lon="6.16062">
        <ele>445</ele>
        <time>2012-02-04T09:45:34Z</time>
      </trkpt>
      <trkpt lat="48.643" lon="6.16062">
        <ele>445</ele>
        <time>2012-02-04T09:45:34Z</time>
      </trkpt>
      <trkpt lat="48.643" lon="6.16062">
        <ele>445</ele>
        <time>2012-02-04T09:45:41Z</time>
      </trkpt>
      <trkpt lat="48.64305" lon="6.1606">
        <ele>440</ele>
        <time>2012-02-04T09:45:57Z</time>
      </trkpt>
      <trkpt lat="48.64304" lon="6.16067">
        <ele>440</ele>
        <time>2012-02-04T09:46:22Z</time>
      </trkpt>
      <trkpt lat="48.64302" lon="6.16074">
        <ele>440</ele>
        <time>2012-02-04T09:46:53Z</time>
      </trkpt>
      <trkpt lat="48.64302" lon="6.16081">
        <ele>439</ele>
        <time>2012-02-04T09:47:08Z</time>
      </trkpt>
      <trkpt lat="48.64301" lon="6.16088">
        <ele>439</ele>
        <time>2012-02-04T09:47:13Z</time>
      </trkpt>
      <trkpt lat="48.64299" lon="6.16095">
        <ele>438</ele>
        <time>2012-02-04T09:47:18Z</time>
      </trkpt>
      <trkpt lat="48.64297" lon="6.16103">
        <ele>438</ele>
        <time>2012-02-04T09:47:23Z</time>
      </trkpt>
      <trkpt lat="48.64295" lon="6.16111">
        <ele>438</ele>
        <time>2012-02-04T09:47:27Z</time>
      </trkpt>
      <trkpt lat="48.64293" lon="6.16119">
        <ele>438</ele>
        <time>2012-02-04T09:47:31Z</time>
      </trkpt>
      <trkpt lat="48.64291" lon="6.16127">
        <ele>437</ele>
        <time>2012-02-04T09:47:35Z</time>
      </trkpt>
      <trkpt lat="48.64289" lon="6.16134">
        <ele>437</ele>
        <time>2012-02-04T09:47:38Z</time>
      </trkpt>
      <trkpt lat="48.64288" lon="6.16142">
        <ele>437</ele>
        <time>2012-02-04T09:47:42Z</time>
      </trkpt>
      <trkpt lat="48.64286" lon="6.1615">
        <ele>437</ele>
        <time>2012-02-04T09:47:46Z</time>
      </trkpt>
      <trkpt lat="48.64284" lon="6.16158">
        <ele>437</ele>
        <time>2012-02-04T09:47:50Z</time>
      </trkpt>
      <trkpt lat="48.64282" lon="6.16167">
        <ele>436</ele>
        <time>2012-02-04T09:47:54Z</time>
      </trkpt>
      <trkpt lat="48.64281" lon="6.16175">
        <ele>436</ele>
        <time>2012-02-04T09:47:58Z</time>
      </trkpt>
      <trkpt lat="48.6428" lon="6.16183">
        <ele>436</ele>
        <time>2012-02-04T09:48:02Z</time>
      </trkpt>
      <trkpt lat="48.6428" lon="6.16192">
        <ele>436</ele>
        <time>2012-02-04T09:48:06Z</time>
      </trkpt>
      <trkpt lat="48.64279" lon="6.162">
        <ele>435</ele>
        <time>2012-02-04T09:48:10Z</time>
      </trkpt>
      <trkpt lat="48.64278" lon="6.16208">
        <ele>435</ele>
        <time>2012-02-04T09:48:14Z</time>
      </trkpt>
      <trkpt lat="48.64274" lon="6.16212">
        <ele>435</ele>
        <time>2012-02-04T09:48:24Z</time>
      </trkpt>
      <trkpt lat="48.64272" lon="6.16218">
        <ele>434</ele>
        <time>2012-02-04T09:48:46Z</time>
      </trkpt>
      <trkpt lat="48.64266" lon="6.16234">
        <ele>422</ele>
        <time>2012-02-04T09:49:13Z</time>
      </trkpt>
      <trkpt lat="48.64266" lon="6.16234">
        <ele>422</ele>
        <time>2012-02-04T09:49:13Z</time>
      </trkpt>
      <trkpt lat="48.64266" lon="6.16234">
        <ele>422</ele>
        <time>2012-02-04T09:49:22Z</time>
      </trkpt>
      <trkpt lat="48.64266" lon="6.1625">
        <ele>425</ele>
        <time>2012-02-04T09:49:23Z</time>
      </trkpt>
      <trkpt lat="48.64266" lon="6.1625">
        <ele>425</ele>
        <time>2012-02-04T09:49:23Z</time>
      </trkpt>
      <trkpt lat="48.64266" lon="6.1625">
        <ele>425</ele>
        <time>2012-02-04T09:49:28Z</time>
      </trkpt>
      <trkpt lat="48.64266" lon="6.16259">
        <ele>426</ele>
        <time>2012-02-04T09:49:29Z</time>
      </trkpt>
      <trkpt lat="48.64266" lon="6.16259">
        <ele>426</ele>
        <time>2012-02-04T09:49:29Z</time>
      </trkpt>
      <trkpt lat="48.64266" lon="6.16259">
        <ele>426</ele>
        <time>2012-02-04T09:49:39Z</time>
      </trkpt>
      <trkpt lat="48.64266" lon="6.16269">
        <ele>429</ele>
        <time>2012-02-04T09:49:40Z</time>
      </trkpt>
      <trkpt lat="48.64266" lon="6.16269">
        <ele>429</ele>
        <time>2012-02-04T09:49:40Z</time>
      </trkpt>
      <trkpt lat="48.64266" lon="6.16269">
        <ele>429</ele>
        <time>2012-02-04T09:49:41Z</time>
      </trkpt>
      <trkpt lat="48.64263" lon="6.16275">
        <ele>429</ele>
        <time>2012-02-04T09:50:05Z</time>
      </trkpt>
      <trkpt lat="48.64262" lon="6.16283">
        <ele>428</ele>
        <time>2012-02-04T09:50:09Z</time>
      </trkpt>
      <trkpt lat="48.64265" lon="6.16312">
        <ele>441</ele>
        <time>2012-02-04T09:50:13Z</time>
      </trkpt>
      <trkpt lat="48.64265" lon="6.16312">
        <ele>441</ele>
        <time>2012-02-04T09:50:13Z</time>
      </trkpt>
      <trkpt lat="48.64265" lon="6.16312">
        <ele>441</ele>
        <time>2012-02-04T09:50:14Z</time>
      </trkpt>
      <trkpt lat="48.64275" lon="6.1632">
        <ele>451</ele>
        <time>2012-02-04T09:50:15Z</time>
      </trkpt>
      <trkpt lat="48.64275" lon="6.1632">
        <ele>451</ele>
        <time>2012-02-04T09:50:15Z</time>
      </trkpt>
      <trkpt lat="48.64275" lon="6.1632">
        <ele>451</ele>
        <time>2012-02-04T09:50:29Z</time>
      </trkpt>
      <trkpt lat="48.6428" lon="6.16333">
        <ele>439</ele>
        <time>2012-02-04T09:50:30Z</time>
      </trkpt>
      <trkpt lat="48.6428" lon="6.16333">
        <ele>439</ele>
        <time>2012-02-04T09:50:30Z</time>
      </trkpt>
      <trkpt lat="48.6428" lon="6.16333">
        <ele>439</ele>
        <time>2012-02-04T09:50:35Z</time>
      </trkpt>
      <trkpt lat="48.64281" lon="6.16348">
        <ele>435</ele>
        <time>2012-02-04T09:50:36Z</time>
      </trkpt>
      <trkpt lat="48.64281" lon="6.16348">
        <ele>435</ele>
        <time>2012-02-04T09:50:36Z</time>
      </trkpt>
      <trkpt lat="48.64281" lon="6.16348">
        <ele>435</ele>
        <time>2012-02-04T09:50:41Z</time>
      </trkpt>
      <trkpt lat="48.6428" lon="6.16363">
        <ele>434</ele>
        <time>2012-02-04T09:50:42Z</time>
      </trkpt>
      <trkpt lat="48.64278" lon="6.16372">
        <ele>433</ele>
        <time>2012-02-04T09:50:45Z</time>
      </trkpt>
      <trkpt lat="48.64276" lon="6.16379">
        <ele>433</ele>
        <time>2012-02-04T09:50:48Z</time>
      </trkpt>
      <trkpt lat="48.64276" lon="6.16386">
        <ele>433</ele>
        <time>2012-02-04T09:50:51Z</time>
      </trkpt>
      <trkpt lat="48.64277" lon="6.16394">
        <ele>432</ele>
        <time>2012-02-04T09:50:55Z</time>
      </trkpt>
      <trkpt lat="48.64279" lon="6.16402">
        <ele>432</ele>
        <time>2012-02-04T09:51:00Z</time>
      </trkpt>
      <trkpt lat="48.64281" lon="6.16409">
        <ele>432</ele>
        <time>2012-02-04T09:51:05Z</time>
      </trkpt>
      <trkpt lat="48.6428" lon="6.16417">
        <ele>432</ele>
        <time>2012-02-04T09:51:10Z</time>
      </trkpt>
      <trkpt lat="48.6428" lon="6.16424">
        <ele>431</ele>
        <time>2012-02-04T09:51:14Z</time>
      </trkpt>
      <trkpt lat="48.64279" lon="6.16431">
        <ele>431</ele>
        <time>2012-02-04T09:51:18Z</time>
      </trkpt>
      <trkpt lat="48.64278" lon="6.16438">
        <ele>431</ele>
        <time>2012-02-04T09:51:22Z</time>
      </trkpt>
      <trkpt lat="48.64277" lon="6.16446">
        <ele>431</ele>
        <time>2012-02-04T09:51:26Z</time>
      </trkpt>
      <trkpt lat="48.64276" lon="6.16453">
        <ele>431</ele>
        <time>2012-02-04T09:51:29Z</time>
      </trkpt>
      <trkpt lat="48.64275" lon="6.16461">
        <ele>431</ele>
        <time>2012-02-04T09:51:33Z</time>
      </trkpt>
      <trkpt lat="48.64273" lon="6.16469">
        <ele>430</ele>
        <time>2012-02-04T09:51:37Z</time>
      </trkpt>
      <trkpt lat="48.64272" lon="6.16476">
        <ele>430</ele>
        <time>2012-02-04T09:51:41Z</time>
      </trkpt>
      <trkpt lat="48.64271" lon="6.16483">
        <ele>430</ele>
        <time>2012-02-04T09:51:45Z</time>
      </trkpt>
      <trkpt lat="48.6427" lon="6.16491">
        <ele>430</ele>
        <time>2012-02-04T09:51:49Z</time>
      </trkpt>
      <trkpt lat="48.6427" lon="6.16498">
        <ele>430</ele>
        <time>2012-02-04T09:51:53Z</time>
      </trkpt>
      <trkpt lat="48.64268" lon="6.16506">
        <ele>429</ele>
        <time>2012-02-04T09:51:57Z</time>
      </trkpt>
      <trkpt lat="48.64267" lon="6.16513">
        <ele>429</ele>
        <time>2012-02-04T09:52:01Z</time>
      </trkpt>
      <trkpt lat="48.64262" lon="6.16512">
        <ele>428</ele>
        <time>2012-02-04T09:52:18Z</time>
      </trkpt>
      <trkpt lat="48.64259" lon="6.16519">
        <ele>428</ele>
        <time>2012-02-04T09:52:23Z</time>
      </trkpt>
      <trkpt lat="48.64257" lon="6.16526">
        <ele>428</ele>
        <time>2012-02-04T09:52:26Z</time>
      </trkpt>
      <trkpt lat="48.64257" lon="6.16533">
        <ele>428</ele>
        <time>2012-02-04T09:52:29Z</time>
      </trkpt>
      <trkpt lat="48.64257" lon="6.16542">
        <ele>427</ele>
        <time>2012-02-04T09:52:32Z</time>
      </trkpt>
      <trkpt lat="48.64258" lon="6.1655">
        <ele>427</ele>
        <time>2012-02-04T09:52:35Z</time>
      </trkpt>
      <trkpt lat="48.64258" lon="6.16558">
        <ele>427</ele>
        <time>2012-02-04T09:52:38Z</time>
      </trkpt>
      <trkpt lat="48.6426" lon="6.16565">
        <ele>427</ele>
        <time>2012-02-04T09:52:41Z</time>
      </trkpt>
      <trkpt lat="48.64262" lon="6.16572">
        <ele>427</ele>
        <time>2012-02-04T09:52:44Z</time>
      </trkpt>
      <trkpt lat="48.64265" lon="6.16579">
        <ele>426</ele>
        <time>2012-02-04T09:52:48Z</time>
      </trkpt>
      <trkpt lat="48.64269" lon="6.16583">
        <ele>426</ele>
        <time>2012-02-04T09:52:52Z</time>
      </trkpt>
      <trkpt lat="48.64273" lon="6.16587">
        <ele>425</ele>
        <time>2012-02-04T09:52:57Z</time>
      </trkpt>
      <trkpt lat="48.6427" lon="6.16592">
        <ele>424</ele>
        <time>2012-02-04T09:53:12Z</time>
      </trkpt>
      <trkpt lat="48.64265" lon="6.16592">
        <ele>423</ele>
        <time>2012-02-04T09:53:18Z</time>
      </trkpt>
      <trkpt lat="48.64262" lon="6.16597">
        <ele>420</ele>
        <time>2012-02-04T09:54:00Z</time>
      </trkpt>
      <trkpt lat="48.64262" lon="6.16605">
        <ele>418</ele>
        <time>2012-02-04T09:54:05Z</time>
      </trkpt>
      <trkpt lat="48.64262" lon="6.16612">
        <ele>416</ele>
        <time>2012-02-04T09:54:10Z</time>
      </trkpt>
      <trkpt lat="48.6426" lon="6.16618">
        <ele>414</ele>
        <time>2012-02-04T09:54:25Z</time>
      </trkpt>
      <trkpt lat="48.64261" lon="6.16625">
        <ele>409</ele>
        <time>2012-02-04T09:55:21Z</time>
      </trkpt>
      <trkpt lat="48.64259" lon="6.16632">
        <ele>405</ele>
        <time>2012-02-04T09:56:44Z</time>
      </trkpt>
      <trkpt lat="48.64259" lon="6.1664">
        <ele>404</ele>
        <time>2012-02-04T09:56:48Z</time>
      </trkpt>
      <trkpt lat="48.64259" lon="6.16647">
        <ele>403</ele>
        <time>2012-02-04T09:56:52Z</time>
      </trkpt>
      <trkpt lat="48.6426" lon="6.16655">
        <ele>401</ele>
        <time>2012-02-04T09:56:57Z</time>
      </trkpt>
      <trkpt lat="48.64262" lon="6.16661">
        <ele>398</ele>
        <time>2012-02-04T09:57:26Z</time>
      </trkpt>
      <trkpt lat="48.64263" lon="6.16669">
        <ele>397</ele>
        <time>2012-02-04T09:57:30Z</time>
      </trkpt>
      <trkpt lat="48.64263" lon="6.16676">
        <ele>397</ele>
        <time>2012-02-04T09:57:34Z</time>
      </trkpt>
      <trkpt lat="48.64264" lon="6.16683">
        <ele>396</ele>
        <time>2012-02-04T09:57:38Z</time>
      </trkpt>
      <trkpt lat="48.64265" lon="6.16691">
        <ele>395</ele>
        <time>2012-02-04T09:57:42Z</time>
      </trkpt>
      <trkpt lat="48.64266" lon="6.16698">
        <ele>394</ele>
        <time>2012-02-04T09:57:46Z</time>
      </trkpt>
      <trkpt lat="48.64267" lon="6.16705">
        <ele>394</ele>
        <time>2012-02-04T09:57:51Z</time>
      </trkpt>
      <trkpt lat="48.64266" lon="6.16712">
        <ele>390</ele>
        <time>2012-02-04T09:58:33Z</time>
      </trkpt>
      <trkpt lat="48.64268" lon="6.1672">
        <ele>389</ele>
        <time>2012-02-04T09:58:37Z</time>
      </trkpt>
      <trkpt lat="48.6427" lon="6.16727">
        <ele>389</ele>
        <time>2012-02-04T09:58:40Z</time>
      </trkpt>
      <trkpt lat="48.64271" lon="6.16733">
        <ele>388</ele>
        <time>2012-02-04T09:58:43Z</time>
      </trkpt>
      <trkpt lat="48.64273" lon="6.16741">
        <ele>388</ele>
        <time>2012-02-04T09:58:47Z</time>
      </trkpt>
      <trkpt lat="48.64275" lon="6.16749">
        <ele>387</ele>
        <time>2012-02-04T09:58:51Z</time>
      </trkpt>
      <trkpt lat="48.64277" lon="6.16757">
        <ele>387</ele>
        <time>2012-02-04T09:58:55Z</time>
      </trkpt>
      <trkpt lat="48.64279" lon="6.16763">
        <ele>387</ele>
        <time>2012-02-04T09:58:58Z</time>
      </trkpt>
      <trkpt lat="48.6428" lon="6.16772">
        <ele>386</ele>
        <time>2012-02-04T09:59:02Z</time>
      </trkpt>
      <trkpt lat="48.64282" lon="6.16779">
        <ele>386</ele>
        <time>2012-02-04T09:59:05Z</time>
      </trkpt>
      <trkpt lat="48.64283" lon="6.16785">
        <ele>386</ele>
        <time>2012-02-04T09:59:08Z</time>
      </trkpt>
      <trkpt lat="48.64285" lon="6.16793">
        <ele>386</ele>
        <time>2012-02-04T09:59:12Z</time>
      </trkpt>
      <trkpt lat="48.64286" lon="6.16801">
        <ele>385</ele>
        <time>2012-02-04T09:59:16Z</time>
      </trkpt>
      <trkpt lat="48.64288" lon="6.16808">
        <ele>385</ele>
        <time>2012-02-04T09:59:20Z</time>
      </trkpt>
      <trkpt lat="48.6429" lon="6.16816">
        <ele>385</ele>
        <time>2012-02-04T09:59:24Z</time>
      </trkpt>
      <trkpt lat="48.64291" lon="6.16823">
        <ele>384</ele>
        <time>2012-02-04T09:59:28Z</time>
      </trkpt>
      <trkpt lat="48.64292" lon="6.1683">
        <ele>384</ele>
        <time>2012-02-04T09:59:35Z</time>
      </trkpt>
      <trkpt lat="48.64295" lon="6.16837">
        <ele>383</ele>
        <time>2012-02-04T09:59:39Z</time>
      </trkpt>
      <trkpt lat="48.64297" lon="6.16846">
        <ele>383</ele>
        <time>2012-02-04T09:59:43Z</time>
      </trkpt>
      <trkpt lat="48.64298" lon="6.16854">
        <ele>383</ele>
        <time>2012-02-04T09:59:47Z</time>
      </trkpt>
      <trkpt lat="48.64295" lon="6.16861">
        <ele>382</ele>
        <time>2012-02-04T09:59:51Z</time>
      </trkpt>
      <trkpt lat="48.64291" lon="6.16866">
        <ele>382</ele>
        <time>2012-02-04T09:59:55Z</time>
      </trkpt>
      <trkpt lat="48.64287" lon="6.1687">
        <ele>382</ele>
        <time>2012-02-04T09:59:58Z</time>
      </trkpt>
      <trkpt lat="48.64282" lon="6.16874">
        <ele>381</ele>
        <time>2012-02-04T10:00:01Z</time>
      </trkpt>
      <trkpt lat="48.64278" lon="6.16877">
        <ele>381</ele>
        <time>2012-02-04T10:00:05Z</time>
      </trkpt>
      <trkpt lat="48.64274" lon="6.16881">
        <ele>380</ele>
        <time>2012-02-04T10:00:09Z</time>
      </trkpt>
      <trkpt lat="48.6427" lon="6.16887">
        <ele>380</ele>
        <time>2012-02-04T10:00:14Z</time>
      </trkpt>
      <trkpt lat="48.64268" lon="6.16895">
        <ele>379</ele>
        <time>2012-02-04T10:00:18Z</time>
      </trkpt>
      <trkpt lat="48.64265" lon="6.16903">
        <ele>378</ele>
        <time>2012-02-04T10:00:22Z</time>
      </trkpt>
      <trkpt lat="48.64263" lon="6.16911">
        <ele>378</ele>
        <time>2012-02-04T10:00:26Z</time>
      </trkpt>
      <trkpt lat="48.6426" lon="6.16918">
        <ele>377</ele>
        <time>2012-02-04T10:00:30Z</time>
      </trkpt>
      <trkpt lat="48.64257" lon="6.16924">
        <ele>376</ele>
        <time>2012-02-04T10:00:33Z</time>
      </trkpt>
      <trkpt lat="48.64255" lon="6.1693">
        <ele>376</ele>
        <time>2012-02-04T10:00:36Z</time>
      </trkpt>
      <trkpt lat="48.64251" lon="6.16936">
        <ele>375</ele>
        <time>2012-02-04T10:00:40Z</time>
      </trkpt>
      <trkpt lat="48.64248" lon="6.16942">
        <ele>375</ele>
        <time>2012-02-04T10:00:44Z</time>
      </trkpt>
      <trkpt lat="48.64245" lon="6.16949">
        <ele>374</ele>
        <time>2012-02-04T10:00:48Z</time>
      </trkpt>
      <trkpt lat="48.64243" lon="6.16955">
        <ele>374</ele>
        <time>2012-02-04T10:00:56Z</time>
      </trkpt>
      <trkpt lat="48.6424" lon="6.16961">
        <ele>373</ele>
        <time>2012-02-04T10:01:00Z</time>
      </trkpt>
      <trkpt lat="48.64237" lon="6.16968">
        <ele>373</ele>
        <time>2012-02-04T10:01:04Z</time>
      </trkpt>
      <trkpt lat="48.64235" lon="6.16974">
        <ele>372</ele>
        <time>2012-02-04T10:01:10Z</time>
      </trkpt>
      <trkpt lat="48.6423" lon="6.16996">
        <ele>391</ele>
        <time>2012-02-04T10:02:13Z</time>
      </trkpt>
      <trkpt lat="48.6423" lon="6.16996">
        <ele>391</ele>
        <time>2012-02-04T10:02:13Z</time>
      </trkpt>
      <trkpt lat="48.6423" lon="6.16996">
        <ele>391</ele>
        <time>2012-02-04T10:02:16Z</time>
      </trkpt>
      <trkpt lat="48.64242" lon="6.16986">
        <ele>392</ele>
        <time>2012-02-04T10:02:17Z</time>
      </trkpt>
      <trkpt lat="48.64242" lon="6.16986">
        <ele>392</ele>
        <time>2012-02-04T10:02:17Z</time>
      </trkpt>
      <trkpt lat="48.64242" lon="6.16986">
        <ele>392</ele>
        <time>2012-02-04T10:02:30Z</time>
      </trkpt>
      <trkpt lat="48.64243" lon="6.16978">
        <ele>381</ele>
        <time>2012-02-04T10:02:31Z</time>
      </trkpt>
      <trkpt lat="48.64243" lon="6.16978">
        <ele>381</ele>
        <time>2012-02-04T10:02:31Z</time>
      </trkpt>
      <trkpt lat="48.64243" lon="6.16978">
        <ele>381</ele>
        <time>2012-02-04T10:02:42Z</time>
      </trkpt>
      <trkpt lat="48.64238" lon="6.16977">
        <ele>376</ele>
        <time>2012-02-04T10:02:51Z</time>
      </trkpt>
      <trkpt lat="48.64234" lon="6.16982">
        <ele>375</ele>
        <time>2012-02-04T10:02:55Z</time>
      </trkpt>
      <trkpt lat="48.6423" lon="6.16987">
        <ele>375</ele>
        <time>2012-02-04T10:03:00Z</time>
      </trkpt>
      <trkpt lat="48.64226" lon="6.16992">
        <ele>375</ele>
        <time>2012-02-04T10:03:05Z</time>
      </trkpt>
      <trkpt lat="48.64222" lon="6.16997">
        <ele>375</ele>
        <time>2012-02-04T10:03:09Z</time>
      </trkpt>
      <trkpt lat="48.64218" lon="6.17003">
        <ele>374</ele>
        <time>2012-02-04T10:03:13Z</time>
      </trkpt>
      <trkpt lat="48.64214" lon="6.17009">
        <ele>374</ele>
        <time>2012-02-04T10:03:17Z</time>
      </trkpt>
      <trkpt lat="48.64212" lon="6.17016">
        <ele>374</ele>
        <time>2012-02-04T10:03:21Z</time>
      </trkpt>
      <trkpt lat="48.64209" lon="6.17024">
        <ele>374</ele>
        <time>2012-02-04T10:03:25Z</time>
      </trkpt>
      <trkpt lat="48.64206" lon="6.17031">
        <ele>374</ele>
        <time>2012-02-04T10:03:28Z</time>
      </trkpt>
      <trkpt lat="48.64204" lon="6.17037">
        <ele>374</ele>
        <time>2012-02-04T10:03:31Z</time>
      </trkpt>
      <trkpt lat="48.64202" lon="6.17043">
        <ele>374</ele>
        <time>2012-02-04T10:03:34Z</time>
      </trkpt>
      <trkpt lat="48.64199" lon="6.17049">
        <ele>374</ele>
        <time>2012-02-04T10:03:37Z</time>
      </trkpt>
      <trkpt lat="48.64196" lon="6.17055">
        <ele>374</ele>
        <time>2012-02-04T10:03:40Z</time>
      </trkpt>
      <trkpt lat="48.64194" lon="6.17063">
        <ele>373</ele>
        <time>2012-02-04T10:03:44Z</time>
      </trkpt>
      <trkpt lat="48.64192" lon="6.17071">
        <ele>373</ele>
        <time>2012-02-04T10:03:48Z</time>
      </trkpt>
      <trkpt lat="48.64189" lon="6.17077">
        <ele>373</ele>
        <time>2012-02-04T10:03:52Z</time>
      </trkpt>
      <trkpt lat="48.64186" lon="6.17082">
        <ele>373</ele>
        <time>2012-02-04T10:03:56Z</time>
      </trkpt>
      <trkpt lat="48.6418" lon="6.17084">
        <ele>373</ele>
        <time>2012-02-04T10:04:00Z</time>
      </trkpt>
      <trkpt lat="48.64176" lon="6.17085">
        <ele>373</ele>
        <time>2012-02-04T10:04:03Z</time>
      </trkpt>
      <trkpt lat="48.6417" lon="6.17086">
        <ele>373</ele>
        <time>2012-02-04T10:04:07Z</time>
      </trkpt>
      <trkpt lat="48.64164" lon="6.17088">
        <ele>373</ele>
        <time>2012-02-04T10:04:11Z</time>
      </trkpt>
      <trkpt lat="48.64158" lon="6.1709">
        <ele>373</ele>
        <time>2012-02-04T10:04:15Z</time>
      </trkpt>
      <trkpt lat="48.64154" lon="6.17094">
        <ele>373</ele>
        <time>2012-02-04T10:04:19Z</time>
      </trkpt>
      <trkpt lat="48.64148" lon="6.17096">
        <ele>373</ele>
        <time>2012-02-04T10:04:23Z</time>
      </trkpt>
      <trkpt lat="48.64143" lon="6.17098">
        <ele>373</ele>
        <time>2012-02-04T10:04:27Z</time>
      </trkpt>
      <trkpt lat="48.64138" lon="6.17099">
        <ele>373</ele>
        <time>2012-02-04T10:04:31Z</time>
      </trkpt>
      <trkpt lat="48.64133" lon="6.17101">
        <ele>373</ele>
        <time>2012-02-04T10:04:34Z</time>
      </trkpt>
      <trkpt lat="48.64128" lon="6.17104">
        <ele>373</ele>
        <time>2012-02-04T10:04:38Z</time>
      </trkpt>
      <trkpt lat="48.64123" lon="6.17105">
        <ele>373</ele>
        <time>2012-02-04T10:04:41Z</time>
      </trkpt>
      <trkpt lat="48.64117" lon="6.17108">
        <ele>373</ele>
        <time>2012-02-04T10:04:45Z</time>
      </trkpt>
      <trkpt lat="48.64113" lon="6.17109">
        <ele>373</ele>
        <time>2012-02-04T10:04:48Z</time>
      </trkpt>
      <trkpt lat="48.64108" lon="6.1711">
        <ele>373</ele>
        <time>2012-02-04T10:04:51Z</time>
      </trkpt>
      <trkpt lat="48.64102" lon="6.17109">
        <ele>373</ele>
        <time>2012-02-04T10:04:54Z</time>
      </trkpt>
      <trkpt lat="48.64097" lon="6.17109">
        <ele>373</ele>
        <time>2012-02-04T10:04:57Z</time>
      </trkpt>
      <trkpt lat="48.64092" lon="6.17109">
        <ele>373</ele>
        <time>2012-02-04T10:05:00Z</time>
      </trkpt>
      <trkpt lat="48.64087" lon="6.1711">
        <ele>374</ele>
        <time>2012-02-04T10:05:04Z</time>
      </trkpt>
      <trkpt lat="48.64081" lon="6.1711">
        <ele>374</ele>
        <time>2012-02-04T10:05:08Z</time>
      </trkpt>
      <trkpt lat="48.64076" lon="6.17111">
        <ele>374</ele>
        <time>2012-02-04T10:05:12Z</time>
      </trkpt>
      <trkpt lat="48.64071" lon="6.17111">
        <ele>374</ele>
        <time>2012-02-04T10:05:15Z</time>
      </trkpt>
      <trkpt lat="48.64066" lon="6.1711">
        <ele>374</ele>
        <time>2012-02-04T10:05:18Z</time>
      </trkpt>
      <trkpt lat="48.6406" lon="6.17111">
        <ele>374</ele>
        <time>2012-02-04T10:05:22Z</time>
      </trkpt>
      <trkpt lat="48.64054" lon="6.17112">
        <ele>374</ele>
        <time>2012-02-04T10:05:26Z</time>
      </trkpt>
      <trkpt lat="48.64048" lon="6.17112">
        <ele>374</ele>
        <time>2012-02-04T10:05:30Z</time>
      </trkpt>
      <trkpt lat="48.64042" lon="6.17112">
        <ele>374</ele>
        <time>2012-02-04T10:05:34Z</time>
      </trkpt>
      <trkpt lat="48.64038" lon="6.17112">
        <ele>374</ele>
        <time>2012-02-04T10:05:37Z</time>
      </trkpt>
      <trkpt lat="48.64032" lon="6.1711">
        <ele>374</ele>
        <time>2012-02-04T10:05:41Z</time>
      </trkpt>
      <trkpt lat="48.64027" lon="6.1711">
        <ele>374</ele>
        <time>2012-02-04T10:05:45Z</time>
      </trkpt>
      <trkpt lat="48.64021" lon="6.17109">
        <ele>374</ele>
        <time>2012-02-04T10:05:49Z</time>
      </trkpt>
      <trkpt lat="48.64018" lon="6.17114">
        <ele>375</ele>
        <time>2012-02-04T10:05:55Z</time>
      </trkpt>
      <trkpt lat="48.64022" lon="6.17116">
        <ele>374</ele>
        <time>2012-02-04T10:07:04Z</time>
      </trkpt>
      <trkpt lat="48.64021" lon="6.17123">
        <ele>374</ele>
        <time>2012-02-04T10:07:29Z</time>
      </trkpt>
      <trkpt lat="48.64016" lon="6.17123">
        <ele>374</ele>
        <time>2012-02-04T10:07:59Z</time>
      </trkpt>
      <trkpt lat="48.64012" lon="6.1712">
        <ele>374</ele>
        <time>2012-02-04T10:08:04Z</time>
      </trkpt>
      <trkpt lat="48.64007" lon="6.1712">
        <ele>374</ele>
        <time>2012-02-04T10:08:08Z</time>
      </trkpt>
      <trkpt lat="48.64002" lon="6.17122">
        <ele>374</ele>
        <time>2012-02-04T10:08:12Z</time>
      </trkpt>
      <trkpt lat="48.63997" lon="6.17125">
        <ele>374</ele>
        <time>2012-02-04T10:08:16Z</time>
      </trkpt>
      <trkpt lat="48.63992" lon="6.17127">
        <ele>374</ele>
        <time>2012-02-04T10:08:20Z</time>
      </trkpt>
      <trkpt lat="48.63986" lon="6.17128">
        <ele>374</ele>
        <time>2012-02-04T10:08:24Z</time>
      </trkpt>
      <trkpt lat="48.63982" lon="6.17125">
        <ele>374</ele>
        <time>2012-02-04T10:08:41Z</time>
      </trkpt>
      <trkpt lat="48.63978" lon="6.17122">
        <ele>374</ele>
        <time>2012-02-04T10:09:07Z</time>
      </trkpt>
      <trkpt lat="48.63976" lon="6.17116">
        <ele>376</ele>
        <time>2012-02-04T10:09:40Z</time>
      </trkpt>
      <trkpt lat="48.63974" lon="6.1711">
        <ele>376</ele>
        <time>2012-02-04T10:10:03Z</time>
      </trkpt>
      <trkpt lat="48.63974" lon="6.17102">
        <ele>377</ele>
        <time>2012-02-04T10:10:09Z</time>
      </trkpt>
      <trkpt lat="48.63974" lon="6.17095">
        <ele>377</ele>
        <time>2012-02-04T10:10:14Z</time>
      </trkpt>
      <trkpt lat="48.63974" lon="6.17088">
        <ele>377</ele>
        <time>2012-02-04T10:10:19Z</time>
      </trkpt>
      <trkpt lat="48.63973" lon="6.17081">
        <ele>377</ele>
        <time>2012-02-04T10:10:24Z</time>
      </trkpt>
      <trkpt lat="48.63973" lon="6.17074">
        <ele>377</ele>
        <time>2012-02-04T10:10:29Z</time>
      </trkpt>
      <trkpt lat="48.63968" lon="6.1707">
        <ele>377</ele>
        <time>2012-02-04T10:10:34Z</time>
      </trkpt>
      <trkpt lat="48.63962" lon="6.17069">
        <ele>377</ele>
        <time>2012-02-04T10:10:37Z</time>
      </trkpt>
      <trkpt lat="48.63957" lon="6.17068">
        <ele>377</ele>
        <time>2012-02-04T10:10:40Z</time>
      </trkpt>
      <trkpt lat="48.63952" lon="6.1707">
        <ele>378</ele>
        <time>2012-02-04T10:10:47Z</time>
      </trkpt>
      <trkpt lat="48.63955" lon="6.17065">
        <ele>378</ele>
        <time>2012-02-04T10:11:27Z</time>
      </trkpt>
      <trkpt lat="48.63951" lon="6.17068">
        <ele>377</ele>
        <time>2012-02-04T10:11:49Z</time>
      </trkpt>
      <trkpt lat="48.63945" lon="6.1707">
        <ele>377</ele>
        <time>2012-02-04T10:11:53Z</time>
      </trkpt>
      <trkpt lat="48.6394" lon="6.17072">
        <ele>377</ele>
        <time>2012-02-04T10:11:57Z</time>
      </trkpt>
      <trkpt lat="48.63935" lon="6.17074">
        <ele>377</ele>
        <time>2012-02-04T10:12:01Z</time>
      </trkpt>
      <trkpt lat="48.6393" lon="6.17075">
        <ele>377</ele>
        <time>2012-02-04T10:12:05Z</time>
      </trkpt>
      <trkpt lat="48.63924" lon="6.17076">
        <ele>377</ele>
        <time>2012-02-04T10:12:09Z</time>
      </trkpt>
      <trkpt lat="48.63919" lon="6.17078">
        <ele>377</ele>
        <time>2012-02-04T10:12:13Z</time>
      </trkpt>
      <trkpt lat="48.63914" lon="6.17079">
        <ele>377</ele>
        <time>2012-02-04T10:12:17Z</time>
      </trkpt>
      <trkpt lat="48.63909" lon="6.17081">
        <ele>377</ele>
        <time>2012-02-04T10:12:21Z</time>
      </trkpt>
      <trkpt lat="48.63904" lon="6.1708">
        <ele>377</ele>
        <time>2012-02-04T10:12:37Z</time>
      </trkpt>
      <trkpt lat="48.63899" lon="6.1708">
        <ele>377</ele>
        <time>2012-02-04T10:12:40Z</time>
      </trkpt>
      <trkpt lat="48.63894" lon="6.17081">
        <ele>377</ele>
        <time>2012-02-04T10:12:43Z</time>
      </trkpt>
      <trkpt lat="48.63888" lon="6.17081">
        <ele>377</ele>
        <time>2012-02-04T10:12:47Z</time>
      </trkpt>
      <trkpt lat="48.63883" lon="6.17081">
        <ele>377</ele>
        <time>2012-02-04T10:12:50Z</time>
      </trkpt>
      <trkpt lat="48.63877" lon="6.17082">
        <ele>377</ele>
        <time>2012-02-04T10:12:54Z</time>
      </trkpt>
      <trkpt lat="48.63872" lon="6.17082">
        <ele>377</ele>
        <time>2012-02-04T10:12:58Z</time>
      </trkpt>
      <trkpt lat="48.63866" lon="6.17082">
        <ele>377</ele>
        <time>2012-02-04T10:13:02Z</time>
      </trkpt>
      <trkpt lat="48.6386" lon="6.17082">
        <ele>377</ele>
        <time>2012-02-04T10:13:06Z</time>
      </trkpt>
      <trkpt lat="48.63854" lon="6.17082">
        <ele>377</ele>
        <time>2012-02-04T10:13:10Z</time>
      </trkpt>
      <trkpt lat="48.63848" lon="6.17082">
        <ele>377</ele>
        <time>2012-02-04T10:13:14Z</time>
      </trkpt>
      <trkpt lat="48.63843" lon="6.17081">
        <ele>377</ele>
        <time>2012-02-04T10:13:18Z</time>
      </trkpt>
      <trkpt lat="48.63837" lon="6.17081">
        <ele>377</ele>
        <time>2012-02-04T10:13:22Z</time>
      </trkpt>
      <trkpt lat="48.63831" lon="6.17082">
        <ele>377</ele>
        <time>2012-02-04T10:13:26Z</time>
      </trkpt>
      <trkpt lat="48.63826" lon="6.17083">
        <ele>377</ele>
        <time>2012-02-04T10:13:30Z</time>
      </trkpt>
      <trkpt lat="48.63822" lon="6.17083">
        <ele>377</ele>
        <time>2012-02-04T10:13:35Z</time>
      </trkpt>
      <trkpt lat="48.63817" lon="6.1708">
        <ele>377</ele>
        <time>2012-02-04T10:13:55Z</time>
      </trkpt>
      <trkpt lat="48.63814" lon="6.17096">
        <ele>372</ele>
        <time>2012-02-04T10:14:14Z</time>
      </trkpt>
      <trkpt lat="48.63814" lon="6.17096">
        <ele>372</ele>
        <time>2012-02-04T10:14:14Z</time>
      </trkpt>
      <trkpt lat="48.63814" lon="6.17096">
        <ele>372</ele>
        <time>2012-02-04T10:14:23Z</time>
      </trkpt>
      <trkpt lat="48.63806" lon="6.17089">
        <ele>369</ele>
        <time>2012-02-04T10:14:24Z</time>
      </trkpt>
      <trkpt lat="48.638" lon="6.17087">
        <ele>369</ele>
        <time>2012-02-04T10:14:28Z</time>
      </trkpt>
      <trkpt lat="48.638" lon="6.17087">
        <ele>369</ele>
        <time>2012-02-04T10:14:28Z</time>
      </trkpt>
      <trkpt lat="48.638" lon="6.17087">
        <ele>369</ele>
        <time>2012-02-04T10:14:31Z</time>
      </trkpt>
      <trkpt lat="48.63796" lon="6.17085">
        <ele>370</ele>
        <time>2012-02-04T10:14:32Z</time>
      </trkpt>
      <trkpt lat="48.6379" lon="6.17084">
        <ele>370</ele>
        <time>2012-02-04T10:14:37Z</time>
      </trkpt>
      <trkpt lat="48.6379" lon="6.17084">
        <ele>370</ele>
        <time>2012-02-04T10:14:37Z</time>
      </trkpt>
      <trkpt lat="48.6379" lon="6.17084">
        <ele>370</ele>
        <time>2012-02-04T10:14:41Z</time>
      </trkpt>
      <trkpt lat="48.63783" lon="6.17082">
        <ele>371</ele>
        <time>2012-02-04T10:14:42Z</time>
      </trkpt>
      <trkpt lat="48.63777" lon="6.17082">
        <ele>371</ele>
        <time>2012-02-04T10:14:46Z</time>
      </trkpt>
      <trkpt lat="48.63772" lon="6.17081">
        <ele>371</ele>
        <time>2012-02-04T10:14:50Z</time>
      </trkpt>
      <trkpt lat="48.63766" lon="6.17081">
        <ele>371</ele>
        <time>2012-02-04T10:14:54Z</time>
      </trkpt>
      <trkpt lat="48.6376" lon="6.17081">
        <ele>371</ele>
        <time>2012-02-04T10:14:58Z</time>
      </trkpt>
      <trkpt lat="48.63754" lon="6.17082">
        <ele>371</ele>
        <time>2012-02-04T10:15:02Z</time>
      </trkpt>
      <trkpt lat="48.63748" lon="6.17083">
        <ele>371</ele>
        <time>2012-02-04T10:15:06Z</time>
      </trkpt>
      <trkpt lat="48.63742" lon="6.17084">
        <ele>371</ele>
        <time>2012-02-04T10:15:10Z</time>
      </trkpt>
      <trkpt lat="48.63737" lon="6.17084">
        <ele>371</ele>
        <time>2012-02-04T10:15:14Z</time>
      </trkpt>
      <trkpt lat="48.63731" lon="6.17085">
        <ele>370</ele>
        <time>2012-02-04T10:15:18Z</time>
      </trkpt>
      <trkpt lat="48.63727" lon="6.17086">
        <ele>370</ele>
        <time>2012-02-04T10:15:23Z</time>
      </trkpt>
      <trkpt lat="48.63721" lon="6.17086">
        <ele>370</ele>
        <time>2012-02-04T10:15:28Z</time>
      </trkpt>
      <trkpt lat="48.63716" lon="6.17086">
        <ele>370</ele>
        <time>2012-02-04T10:15:33Z</time>
      </trkpt>
      <trkpt lat="48.63711" lon="6.17088">
        <ele>370</ele>
        <time>2012-02-04T10:15:37Z</time>
      </trkpt>
      <trkpt lat="48.63705" lon="6.17091">
        <ele>370</ele>
        <time>2012-02-04T10:15:41Z</time>
      </trkpt>
      <trkpt lat="48.637" lon="6.17094">
        <ele>370</ele>
        <time>2012-02-04T10:15:45Z</time>
      </trkpt>
      <trkpt lat="48.63695" lon="6.17097">
        <ele>370</ele>
        <time>2012-02-04T10:15:49Z</time>
      </trkpt>
      <trkpt lat="48.6369" lon="6.171">
        <ele>370</ele>
        <time>2012-02-04T10:15:53Z</time>
      </trkpt>
      <trkpt lat="48.63685" lon="6.17103">
        <ele>370</ele>
        <time>2012-02-04T10:15:57Z</time>
      </trkpt>
      <trkpt lat="48.6368" lon="6.17105">
        <ele>370</ele>
        <time>2012-02-04T10:16:01Z</time>
      </trkpt>
      <trkpt lat="48.63675" lon="6.17108">
        <ele>370</ele>
        <time>2012-02-04T10:16:05Z</time>
      </trkpt>
      <trkpt lat="48.6367" lon="6.17111">
        <ele>370</ele>
        <time>2012-02-04T10:16:09Z</time>
      </trkpt>
      <trkpt lat="48.63649" lon="6.1714">
        <ele>392</ele>
        <time>2012-02-04T10:16:16Z</time>
      </trkpt>
      <trkpt lat="48.63649" lon="6.1714">
        <ele>392</ele>
        <time>2012-02-04T10:16:16Z</time>
      </trkpt>
      <trkpt lat="48.63649" lon="6.1714">
        <ele>392</ele>
        <time>2012-02-04T10:16:28Z</time>
      </trkpt>
      <trkpt lat="48.63643" lon="6.17146">
        <ele>394</ele>
        <time>2012-02-04T10:16:29Z</time>
      </trkpt>
      <trkpt lat="48.63643" lon="6.17146">
        <ele>394</ele>
        <time>2012-02-04T10:16:29Z</time>
      </trkpt>
      <trkpt lat="48.63643" lon="6.17146">
        <ele>394</ele>
        <time>2012-02-04T10:16:33Z</time>
      </trkpt>
      <trkpt lat="48.63638" lon="6.17152">
        <ele>395</ele>
        <time>2012-02-04T10:16:34Z</time>
      </trkpt>
      <trkpt lat="48.63638" lon="6.17152">
        <ele>395</ele>
        <time>2012-02-04T10:16:34Z</time>
      </trkpt>
      <trkpt lat="48.63638" lon="6.17152">
        <ele>395</ele>
        <time>2012-02-04T10:16:38Z</time>
      </trkpt>
      <trkpt lat="48.63633" lon="6.17157">
        <ele>393</ele>
        <time>2012-02-04T10:16:39Z</time>
      </trkpt>
      <trkpt lat="48.63633" lon="6.17157">
        <ele>393</ele>
        <time>2012-02-04T10:16:39Z</time>
      </trkpt>
      <trkpt lat="48.63633" lon="6.17157">
        <ele>393</ele>
        <time>2012-02-04T10:16:40Z</time>
      </trkpt>
      <trkpt lat="48.63629" lon="6.1716">
        <ele>390</ele>
        <time>2012-02-04T10:16:43Z</time>
      </trkpt>
      <trkpt lat="48.63625" lon="6.17157">
        <ele>386</ele>
        <time>2012-02-04T10:16:51Z</time>
      </trkpt>
      <trkpt lat="48.6362" lon="6.17159">
        <ele>386</ele>
        <time>2012-02-04T10:16:56Z</time>
      </trkpt>
      <trkpt lat="48.6362" lon="6.17152">
        <ele>385</ele>
        <time>2012-02-04T10:17:06Z</time>
      </trkpt>
      <trkpt lat="48.63617" lon="6.17157">
        <ele>380</ele>
        <time>2012-02-04T10:18:50Z</time>
      </trkpt>
      <trkpt lat="48.63612" lon="6.17158">
        <ele>379</ele>
        <time>2012-02-04T10:18:55Z</time>
      </trkpt>
      <trkpt lat="48.6361" lon="6.17164">
        <ele>378</ele>
        <time>2012-02-04T10:20:05Z</time>
      </trkpt>
      <trkpt lat="48.63551" lon="6.17155">
        <ele>352</ele>
        <time>2012-02-04T10:20:14Z</time>
      </trkpt>
      <trkpt lat="48.63551" lon="6.17155">
        <ele>352</ele>
        <time>2012-02-04T10:20:14Z</time>
      </trkpt>
      <trkpt lat="48.63551" lon="6.17155">
        <ele>352</ele>
        <time>2012-02-04T10:20:15Z</time>
      </trkpt>
      <trkpt lat="48.63561" lon="6.17165">
        <ele>362</ele>
        <time>2012-02-04T10:20:16Z</time>
      </trkpt>
      <trkpt lat="48.63561" lon="6.17165">
        <ele>362</ele>
        <time>2012-02-04T10:20:16Z</time>
      </trkpt>
      <trkpt lat="48.63561" lon="6.17165">
        <ele>362</ele>
        <time>2012-02-04T10:20:17Z</time>
      </trkpt>
      <trkpt lat="48.63572" lon="6.17171">
        <ele>366</ele>
        <time>2012-02-04T10:20:18Z</time>
      </trkpt>
      <trkpt lat="48.63572" lon="6.17171">
        <ele>366</ele>
        <time>2012-02-04T10:20:18Z</time>
      </trkpt>
      <trkpt lat="48.63572" lon="6.17171">
        <ele>366</ele>
        <time>2012-02-04T10:20:24Z</time>
      </trkpt>
      <trkpt lat="48.63572" lon="6.17187">
        <ele>373</ele>
        <time>2012-02-04T10:20:25Z</time>
      </trkpt>
      <trkpt lat="48.63567" lon="6.17193">
        <ele>376</ele>
        <time>2012-02-04T10:20:31Z</time>
      </trkpt>
      <trkpt lat="48.63562" lon="6.17196">
        <ele>376</ele>
        <time>2012-02-04T10:20:35Z</time>
      </trkpt>
      <trkpt lat="48.63557" lon="6.17202">
        <ele>376</ele>
        <time>2012-02-04T10:20:43Z</time>
      </trkpt>
      <trkpt lat="48.63556" lon="6.17208">
        <ele>377</ele>
        <time>2012-02-04T10:21:01Z</time>
      </trkpt>
      <trkpt lat="48.63559" lon="6.17202">
        <ele>377</ele>
        <time>2012-02-04T10:21:10Z</time>
      </trkpt>
      <trkpt lat="48.63564" lon="6.17196">
        <ele>377</ele>
        <time>2012-02-04T10:21:14Z</time>
      </trkpt>
      <trkpt lat="48.63568" lon="6.17192">
        <ele>377</ele>
        <time>2012-02-04T10:21:17Z</time>
      </trkpt>
      <trkpt lat="48.63572" lon="6.17189">
        <ele>377</ele>
        <time>2012-02-04T10:21:20Z</time>
      </trkpt>
      <trkpt lat="48.63576" lon="6.17186">
        <ele>377</ele>
        <time>2012-02-04T10:21:23Z</time>
      </trkpt>
      <trkpt lat="48.6358" lon="6.17183">
        <ele>377</ele>
        <time>2012-02-04T10:21:26Z</time>
      </trkpt>
      <trkpt lat="48.63584" lon="6.17179">
        <ele>377</ele>
        <time>2012-02-04T10:21:30Z</time>
      </trkpt>
      <trkpt lat="48.63588" lon="6.17173">
        <ele>377</ele>
        <time>2012-02-04T10:21:34Z</time>
      </trkpt>
      <trkpt lat="48.6359" lon="6.17168">
        <ele>377</ele>
        <time>2012-02-04T10:21:43Z</time>
      </trkpt>
      <trkpt lat="48.63587" lon="6.17163">
        <ele>376</ele>
        <time>2012-02-04T10:21:53Z</time>
      </trkpt>
      <trkpt lat="48.63582" lon="6.17165">
        <ele>376</ele>
        <time>2012-02-04T10:21:58Z</time>
      </trkpt>
      <trkpt lat="48.63578" lon="6.17168">
        <ele>377</ele>
        <time>2012-02-04T10:22:04Z</time>
      </trkpt>
      <trkpt lat="48.63573" lon="6.1717">
        <ele>377</ele>
        <time>2012-02-04T10:22:11Z</time>
      </trkpt>
      <trkpt lat="48.63569" lon="6.17172">
        <ele>377</ele>
        <time>2012-02-04T10:22:17Z</time>
      </trkpt>
      <trkpt lat="48.63564" lon="6.17176">
        <ele>377</ele>
        <time>2012-02-04T10:22:23Z</time>
      </trkpt>
      <trkpt lat="48.6356" lon="6.17179">
        <ele>377</ele>
        <time>2012-02-04T10:22:28Z</time>
      </trkpt>
      <trkpt lat="48.63556" lon="6.17182">
        <ele>377</ele>
        <time>2012-02-04T10:22:33Z</time>
      </trkpt>
      <trkpt lat="48.63552" lon="6.17186">
        <ele>377</ele>
        <time>2012-02-04T10:22:38Z</time>
      </trkpt>
      <trkpt lat="48.63538" lon="6.17211">
        <ele>397</ele>
        <time>2012-02-04T10:23:13Z</time>
      </trkpt>
      <trkpt lat="48.63549" lon="6.1721">
        <ele>395</ele>
        <time>2012-02-04T10:23:14Z</time>
      </trkpt>
      <trkpt lat="48.63549" lon="6.1721">
        <ele>395</ele>
        <time>2012-02-04T10:23:14Z</time>
      </trkpt>
      <trkpt lat="48.63549" lon="6.1721">
        <ele>395</ele>
        <time>2012-02-04T10:23:18Z</time>
      </trkpt>
      <trkpt lat="48.63555" lon="6.17199">
        <ele>396</ele>
        <time>2012-02-04T10:23:19Z</time>
      </trkpt>
      <trkpt lat="48.63555" lon="6.17199">
        <ele>396</ele>
        <time>2012-02-04T10:23:19Z</time>
      </trkpt>
      <trkpt lat="48.63555" lon="6.17199">
        <ele>396</ele>
        <time>2012-02-04T10:23:31Z</time>
      </trkpt>
      <trkpt lat="48.63555" lon="6.17192">
        <ele>390</ele>
        <time>2012-02-04T10:23:32Z</time>
      </trkpt>
      <trkpt lat="48.63555" lon="6.17192">
        <ele>390</ele>
        <time>2012-02-04T10:23:32Z</time>
      </trkpt>
      <trkpt lat="48.63555" lon="6.17192">
        <ele>390</ele>
        <time>2012-02-04T10:23:38Z</time>
      </trkpt>
      <trkpt lat="48.63554" lon="6.17186">
        <ele>394</ele>
        <time>2012-02-04T10:23:39Z</time>
      </trkpt>
      <trkpt lat="48.63554" lon="6.17186">
        <ele>394</ele>
        <time>2012-02-04T10:23:39Z</time>
      </trkpt>
      <trkpt lat="48.63554" lon="6.17186">
        <ele>394</ele>
        <time>2012-02-04T10:23:41Z</time>
      </trkpt>
      <trkpt lat="48.63558" lon="6.17189">
        <ele>389</ele>
        <time>2012-02-04T10:24:29Z</time>
      </trkpt>
      <trkpt lat="48.63562" lon="6.17185">
        <ele>388</ele>
        <time>2012-02-04T10:24:34Z</time>
      </trkpt>
      <trkpt lat="48.63566" lon="6.1718">
        <ele>387</ele>
        <time>2012-02-04T10:24:53Z</time>
      </trkpt>
      <trkpt lat="48.63569" lon="6.17174">
        <ele>387</ele>
        <time>2012-02-04T10:24:58Z</time>
      </trkpt>
      <trkpt lat="48.63574" lon="6.17174">
        <ele>386</ele>
        <time>2012-02-04T10:25:04Z</time>
      </trkpt>
      <trkpt lat="48.63578" lon="6.17176">
        <ele>385</ele>
        <time>2012-02-04T10:25:14Z</time>
      </trkpt>
      <trkpt lat="48.63579" lon="6.17182">
        <ele>384</ele>
        <time>2012-02-04T10:25:24Z</time>
      </trkpt>
      <trkpt lat="48.63577" lon="6.17189">
        <ele>384</ele>
        <time>2012-02-04T10:25:29Z</time>
      </trkpt>
      <trkpt lat="48.63572" lon="6.17193">
        <ele>383</ele>
        <time>2012-02-04T10:25:34Z</time>
      </trkpt>
      <trkpt lat="48.63568" lon="6.17197">
        <ele>382</ele>
        <time>2012-02-04T10:25:38Z</time>
      </trkpt>
      <trkpt lat="48.63563" lon="6.172">
        <ele>381</ele>
        <time>2012-02-04T10:25:42Z</time>
      </trkpt>
      <trkpt lat="48.63559" lon="6.17204">
        <ele>380</ele>
        <time>2012-02-04T10:25:46Z</time>
      </trkpt>
      <trkpt lat="48.63555" lon="6.17209">
        <ele>379</ele>
        <time>2012-02-04T10:25:50Z</time>
      </trkpt>
      <trkpt lat="48.63551" lon="6.17213">
        <ele>379</ele>
        <time>2012-02-04T10:25:54Z</time>
      </trkpt>
      <trkpt lat="48.63547" lon="6.17217">
        <ele>378</ele>
        <time>2012-02-04T10:25:58Z</time>
      </trkpt>
      <trkpt lat="48.63542" lon="6.17221">
        <ele>378</ele>
        <time>2012-02-04T10:26:02Z</time>
      </trkpt>
      <trkpt lat="48.63537" lon="6.17226">
        <ele>377</ele>
        <time>2012-02-04T10:26:06Z</time>
      </trkpt>
      <trkpt lat="48.63533" lon="6.17229">
        <ele>376</ele>
        <time>2012-02-04T10:26:09Z</time>
      </trkpt>
      <trkpt lat="48.63529" lon="6.17234">
        <ele>376</ele>
        <time>2012-02-04T10:26:13Z</time>
      </trkpt>
      <trkpt lat="48.63525" lon="6.17239">
        <ele>375</ele>
        <time>2012-02-04T10:26:17Z</time>
      </trkpt>
      <trkpt lat="48.63521" lon="6.17245">
        <ele>375</ele>
        <time>2012-02-04T10:26:21Z</time>
      </trkpt>
      <trkpt lat="48.63517" lon="6.1725">
        <ele>375</ele>
        <time>2012-02-04T10:26:24Z</time>
      </trkpt>
      <trkpt lat="48.63513" lon="6.17256">
        <ele>375</ele>
        <time>2012-02-04T10:26:27Z</time>
      </trkpt>
      <trkpt lat="48.6351" lon="6.17261">
        <ele>375</ele>
        <time>2012-02-04T10:26:30Z</time>
      </trkpt>
      <trkpt lat="48.63505" lon="6.17265">
        <ele>375</ele>
        <time>2012-02-04T10:26:33Z</time>
      </trkpt>
      <trkpt lat="48.63501" lon="6.17268">
        <ele>374</ele>
        <time>2012-02-04T10:26:36Z</time>
      </trkpt>
      <trkpt lat="48.63496" lon="6.17271">
        <ele>374</ele>
        <time>2012-02-04T10:26:39Z</time>
      </trkpt>
      <trkpt lat="48.63492" lon="6.17273">
        <ele>374</ele>
        <time>2012-02-04T10:26:42Z</time>
      </trkpt>
      <trkpt lat="48.63486" lon="6.17275">
        <ele>374</ele>
        <time>2012-02-04T10:26:46Z</time>
      </trkpt>
      <trkpt lat="48.63481" lon="6.17277">
        <ele>374</ele>
        <time>2012-02-04T10:26:50Z</time>
      </trkpt>
      <trkpt lat="48.63476" lon="6.1728">
        <ele>374</ele>
        <time>2012-02-04T10:26:54Z</time>
      </trkpt>
      <trkpt lat="48.63472" lon="6.17284">
        <ele>374</ele>
        <time>2012-02-04T10:27:03Z</time>
      </trkpt>
      <trkpt lat="48.63469" lon="6.17288">
        <ele>374</ele>
        <time>2012-02-04T10:27:12Z</time>
      </trkpt>
      <trkpt lat="48.63465" lon="6.17292">
        <ele>374</ele>
        <time>2012-02-04T10:27:44Z</time>
      </trkpt>
      <trkpt lat="48.6346" lon="6.17294">
        <ele>374</ele>
        <time>2012-02-04T10:27:49Z</time>
      </trkpt>
      <trkpt lat="48.63456" lon="6.17296">
        <ele>374</ele>
        <time>2012-02-04T10:27:55Z</time>
      </trkpt>
      <trkpt lat="48.63451" lon="6.17297">
        <ele>374</ele>
        <time>2012-02-04T10:28:01Z</time>
      </trkpt>
      <trkpt lat="48.63446" lon="6.17299">
        <ele>374</ele>
        <time>2012-02-04T10:28:15Z</time>
      </trkpt>
      <trkpt lat="48.63441" lon="6.17301">
        <ele>374</ele>
        <time>2012-02-04T10:28:21Z</time>
      </trkpt>
      <trkpt lat="48.63436" lon="6.17302">
        <ele>374</ele>
        <time>2012-02-04T10:28:27Z</time>
      </trkpt>
      <trkpt lat="48.63431" lon="6.17303">
        <ele>374</ele>
        <time>2012-02-04T10:28:31Z</time>
      </trkpt>
      <trkpt lat="48.63426" lon="6.17304">
        <ele>374</ele>
        <time>2012-02-04T10:28:35Z</time>
      </trkpt>
      <trkpt lat="48.63421" lon="6.17304">
        <ele>374</ele>
        <time>2012-02-04T10:28:40Z</time>
      </trkpt>
      <trkpt lat="48.63416" lon="6.17304">
        <ele>374</ele>
        <time>2012-02-04T10:28:44Z</time>
      </trkpt>
      <trkpt lat="48.63411" lon="6.17305">
        <ele>374</ele>
        <time>2012-02-04T10:28:48Z</time>
      </trkpt>
      <trkpt lat="48.63406" lon="6.17305">
        <ele>374</ele>
        <time>2012-02-04T10:28:52Z</time>
      </trkpt>
      <trkpt lat="48.634" lon="6.17306">
        <ele>374</ele>
        <time>2012-02-04T10:29:01Z</time>
      </trkpt>
      <trkpt lat="48.63396" lon="6.17306">
        <ele>374</ele>
        <time>2012-02-04T10:29:05Z</time>
      </trkpt>
      <trkpt lat="48.6339" lon="6.17306">
        <ele>374</ele>
        <time>2012-02-04T10:29:10Z</time>
      </trkpt>
      <trkpt lat="48.63385" lon="6.17307">
        <ele>374</ele>
        <time>2012-02-04T10:29:14Z</time>
      </trkpt>
      <trkpt lat="48.6338" lon="6.17308">
        <ele>374</ele>
        <time>2012-02-04T10:29:19Z</time>
      </trkpt>
      <trkpt lat="48.63376" lon="6.1731">
        <ele>374</ele>
        <time>2012-02-04T10:29:42Z</time>
      </trkpt>
      <trkpt lat="48.63371" lon="6.17312">
        <ele>374</ele>
        <time>2012-02-04T10:30:14Z</time>
      </trkpt>
      <trkpt lat="48.63366" lon="6.17313">
        <ele>375</ele>
        <time>2012-02-04T10:30:49Z</time>
      </trkpt>
      <trkpt lat="48.63361" lon="6.17311">
        <ele>375</ele>
        <time>2012-02-04T10:30:53Z</time>
      </trkpt>
      <trkpt lat="48.63356" lon="6.1731">
        <ele>375</ele>
        <time>2012-02-04T10:30:57Z</time>
      </trkpt>
      <trkpt lat="48.63351" lon="6.17309">
        <ele>375</ele>
        <time>2012-02-04T10:31:01Z</time>
      </trkpt>
      <trkpt lat="48.63346" lon="6.17307">
        <ele>375</ele>
        <time>2012-02-04T10:31:06Z</time>
      </trkpt>
      <trkpt lat="48.63341" lon="6.17306">
        <ele>375</ele>
        <time>2012-02-04T10:31:18Z</time>
      </trkpt>
      <trkpt lat="48.63336" lon="6.17304">
        <ele>375</ele>
        <time>2012-02-04T10:31:22Z</time>
      </trkpt>
      <trkpt lat="48.63331" lon="6.17303">
        <ele>375</ele>
        <time>2012-02-04T10:31:33Z</time>
      </trkpt>
      <trkpt lat="48.63325" lon="6.17302">
        <ele>375</ele>
        <time>2012-02-04T10:31:37Z</time>
      </trkpt>
      <trkpt lat="48.6332" lon="6.173">
        <ele>375</ele>
        <time>2012-02-04T10:31:41Z</time>
      </trkpt>
      <trkpt lat="48.63315" lon="6.17296">
        <ele>375</ele>
        <time>2012-02-04T10:31:45Z</time>
      </trkpt>
      <trkpt lat="48.63309" lon="6.17294">
        <ele>375</ele>
        <time>2012-02-04T10:31:49Z</time>
      </trkpt>
      <trkpt lat="48.63304" lon="6.17291">
        <ele>375</ele>
        <time>2012-02-04T10:31:53Z</time>
      </trkpt>
      <trkpt lat="48.63298" lon="6.17289">
        <ele>375</ele>
        <time>2012-02-04T10:31:57Z</time>
      </trkpt>
      <trkpt lat="48.63294" lon="6.17289">
        <ele>375</ele>
        <time>2012-02-04T10:32:23Z</time>
      </trkpt>
      <trkpt lat="48.63289" lon="6.17291">
        <ele>375</ele>
        <time>2012-02-04T10:32:55Z</time>
      </trkpt>
      <trkpt lat="48.63285" lon="6.17289">
        <ele>375</ele>
        <time>2012-02-04T10:32:59Z</time>
      </trkpt>
      <trkpt lat="48.6328" lon="6.17287">
        <ele>375</ele>
        <time>2012-02-04T10:33:03Z</time>
      </trkpt>
      <trkpt lat="48.63274" lon="6.17285">
        <ele>375</ele>
        <time>2012-02-04T10:33:07Z</time>
      </trkpt>
      <trkpt lat="48.63257" lon="6.17302">
        <ele>398</ele>
        <time>2012-02-04T10:33:15Z</time>
      </trkpt>
      <trkpt lat="48.63257" lon="6.17302">
        <ele>398</ele>
        <time>2012-02-04T10:33:15Z</time>
      </trkpt>
      <trkpt lat="48.63257" lon="6.17302">
        <ele>398</ele>
        <time>2012-02-04T10:33:20Z</time>
      </trkpt>
      <trkpt lat="48.63249" lon="6.17296">
        <ele>395</ele>
        <time>2012-02-04T10:33:21Z</time>
      </trkpt>
      <trkpt lat="48.63249" lon="6.17296">
        <ele>395</ele>
        <time>2012-02-04T10:33:21Z</time>
      </trkpt>
      <trkpt lat="48.63249" lon="6.17296">
        <ele>395</ele>
        <time>2012-02-04T10:33:25Z</time>
      </trkpt>
      <trkpt lat="48.63242" lon="6.17294">
        <ele>392</ele>
        <time>2012-02-04T10:33:26Z</time>
      </trkpt>
      <trkpt lat="48.63236" lon="6.17293">
        <ele>389</ele>
        <time>2012-02-04T10:33:29Z</time>
      </trkpt>
      <trkpt lat="48.63232" lon="6.17292">
        <ele>388</ele>
        <time>2012-02-04T10:33:32Z</time>
      </trkpt>
      <trkpt lat="48.63226" lon="6.17289">
        <ele>386</ele>
        <time>2012-02-04T10:33:36Z</time>
      </trkpt>
      <trkpt lat="48.63221" lon="6.17287">
        <ele>386</ele>
        <time>2012-02-04T10:33:40Z</time>
      </trkpt>
      <trkpt lat="48.63216" lon="6.17285">
        <ele>385</ele>
        <time>2012-02-04T10:33:44Z</time>
      </trkpt>
      <trkpt lat="48.63215" lon="6.17278">
        <ele>385</ele>
        <time>2012-02-04T10:33:59Z</time>
      </trkpt>
      <trkpt lat="48.63219" lon="6.17275">
        <ele>385</ele>
        <time>2012-02-04T10:34:30Z</time>
      </trkpt>
      <trkpt lat="48.63214" lon="6.17273">
        <ele>384</ele>
        <time>2012-02-04T10:35:43Z</time>
      </trkpt>
      <trkpt lat="48.6321" lon="6.17272">
        <ele>384</ele>
        <time>2012-02-04T10:35:46Z</time>
      </trkpt>
      <trkpt lat="48.63204" lon="6.1727">
        <ele>384</ele>
        <time>2012-02-04T10:35:50Z</time>
      </trkpt>
      <trkpt lat="48.63199" lon="6.17269">
        <ele>384</ele>
        <time>2012-02-04T10:35:54Z</time>
      </trkpt>
      <trkpt lat="48.63194" lon="6.17267">
        <ele>384</ele>
        <time>2012-02-04T10:35:58Z</time>
      </trkpt>
      <trkpt lat="48.63189" lon="6.17265">
        <ele>384</ele>
        <time>2012-02-04T10:36:02Z</time>
      </trkpt>
      <trkpt lat="48.63184" lon="6.17263">
        <ele>384</ele>
        <time>2012-02-04T10:36:06Z</time>
      </trkpt>
      <trkpt lat="48.63179" lon="6.17262">
        <ele>384</ele>
        <time>2012-02-04T10:36:10Z</time>
      </trkpt>
      <trkpt lat="48.63174" lon="6.1726">
        <ele>383</ele>
        <time>2012-02-04T10:36:15Z</time>
      </trkpt>
      <trkpt lat="48.63169" lon="6.17259">
        <ele>383</ele>
        <time>2012-02-04T10:36:20Z</time>
      </trkpt>
      <trkpt lat="48.63164" lon="6.17257">
        <ele>383</ele>
        <time>2012-02-04T10:36:25Z</time>
      </trkpt>
      <trkpt lat="48.63159" lon="6.17256">
        <ele>383</ele>
        <time>2012-02-04T10:36:30Z</time>
      </trkpt>
      <trkpt lat="48.63154" lon="6.17254">
        <ele>383</ele>
        <time>2012-02-04T10:36:35Z</time>
      </trkpt>
      <trkpt lat="48.63149" lon="6.17253">
        <ele>383</ele>
        <time>2012-02-04T10:36:39Z</time>
      </trkpt>
      <trkpt lat="48.63144" lon="6.1725">
        <ele>383</ele>
        <time>2012-02-04T10:36:44Z</time>
      </trkpt>
      <trkpt lat="48.63139" lon="6.17247">
        <ele>384</ele>
        <time>2012-02-04T10:36:49Z</time>
      </trkpt>
      <trkpt lat="48.63134" lon="6.17244">
        <ele>384</ele>
        <time>2012-02-04T10:36:54Z</time>
      </trkpt>
      <trkpt lat="48.63128" lon="6.17242">
        <ele>384</ele>
        <time>2012-02-04T10:36:59Z</time>
      </trkpt>
      <trkpt lat="48.63123" lon="6.1724">
        <ele>384</ele>
        <time>2012-02-04T10:37:04Z</time>
      </trkpt>
      <trkpt lat="48.63118" lon="6.17238">
        <ele>384</ele>
        <time>2012-02-04T10:37:09Z</time>
      </trkpt>
      <trkpt lat="48.63113" lon="6.17235">
        <ele>385</ele>
        <time>2012-02-04T10:37:14Z</time>
      </trkpt>
      <trkpt lat="48.63108" lon="6.17233">
        <ele>385</ele>
        <time>2012-02-04T10:37:19Z</time>
      </trkpt>
      <trkpt lat="48.63103" lon="6.17232">
        <ele>386</ele>
        <time>2012-02-04T10:37:24Z</time>
      </trkpt>
      <trkpt lat="48.63097" lon="6.17229">
        <ele>386</ele>
        <time>2012-02-04T10:37:29Z</time>
      </trkpt>
      <trkpt lat="48.63093" lon="6.17226">
        <ele>387</ele>
        <time>2012-02-04T10:37:34Z</time>
      </trkpt>
      <trkpt lat="48.63088" lon="6.17223">
        <ele>387</ele>
        <time>2012-02-04T10:37:39Z</time>
      </trkpt>
      <trkpt lat="48.63082" lon="6.17219">
        <ele>388</ele>
        <time>2012-02-04T10:37:44Z</time>
      </trkpt>
      <trkpt lat="48.63078" lon="6.17216">
        <ele>388</ele>
        <time>2012-02-04T10:37:47Z</time>
      </trkpt>
      <trkpt lat="48.63073" lon="6.17213">
        <ele>388</ele>
        <time>2012-02-04T10:37:51Z</time>
      </trkpt>
      <trkpt lat="48.63068" lon="6.1721">
        <ele>389</ele>
        <time>2012-02-04T10:37:55Z</time>
      </trkpt>
      <trkpt lat="48.63063" lon="6.17208">
        <ele>389</ele>
        <time>2012-02-04T10:37:59Z</time>
      </trkpt>
      <trkpt lat="48.63058" lon="6.17205">
        <ele>390</ele>
        <time>2012-02-04T10:38:03Z</time>
      </trkpt>
      <trkpt lat="48.63054" lon="6.17203">
        <ele>390</ele>
        <time>2012-02-04T10:38:07Z</time>
      </trkpt>
      <trkpt lat="48.63049" lon="6.17202">
        <ele>391</ele>
        <time>2012-02-04T10:38:11Z</time>
      </trkpt>
      <trkpt lat="48.63043" lon="6.172">
        <ele>391</ele>
        <time>2012-02-04T10:38:16Z</time>
      </trkpt>
      <trkpt lat="48.63039" lon="6.17198">
        <ele>391</ele>
        <time>2012-02-04T10:38:20Z</time>
      </trkpt>
      <trkpt lat="48.63034" lon="6.17197">
        <ele>391</ele>
        <time>2012-02-04T10:38:24Z</time>
      </trkpt>
      <trkpt lat="48.63029" lon="6.17196">
        <ele>392</ele>
        <time>2012-02-04T10:38:28Z</time>
      </trkpt>
      <trkpt lat="48.63024" lon="6.17195">
        <ele>392</ele>
        <time>2012-02-04T10:38:32Z</time>
      </trkpt>
      <trkpt lat="48.6302" lon="6.17194">
        <ele>392</ele>
        <time>2012-02-04T10:38:35Z</time>
      </trkpt>
      <trkpt lat="48.63015" lon="6.17192">
        <ele>393</ele>
        <time>2012-02-04T10:38:38Z</time>
      </trkpt>
      <trkpt lat="48.63009" lon="6.1719">
        <ele>393</ele>
        <time>2012-02-04T10:38:42Z</time>
      </trkpt>
      <trkpt lat="48.63005" lon="6.17188">
        <ele>394</ele>
        <time>2012-02-04T10:38:46Z</time>
      </trkpt>
      <trkpt lat="48.63" lon="6.17188">
        <ele>394</ele>
        <time>2012-02-04T10:38:50Z</time>
      </trkpt>
      <trkpt lat="48.62994" lon="6.1719">
        <ele>395</ele>
        <time>2012-02-04T10:38:54Z</time>
      </trkpt>
      <trkpt lat="48.62989" lon="6.1719">
        <ele>395</ele>
        <time>2012-02-04T10:38:58Z</time>
      </trkpt>
      <trkpt lat="48.62984" lon="6.17189">
        <ele>396</ele>
        <time>2012-02-04T10:39:01Z</time>
      </trkpt>
      <trkpt lat="48.62979" lon="6.17188">
        <ele>397</ele>
        <time>2012-02-04T10:39:04Z</time>
      </trkpt>
      <trkpt lat="48.62974" lon="6.17186">
        <ele>398</ele>
        <time>2012-02-04T10:39:08Z</time>
      </trkpt>
      <trkpt lat="48.6297" lon="6.17185">
        <ele>398</ele>
        <time>2012-02-04T10:39:12Z</time>
      </trkpt>
      <trkpt lat="48.62964" lon="6.17183">
        <ele>399</ele>
        <time>2012-02-04T10:39:17Z</time>
      </trkpt>
      <trkpt lat="48.62959" lon="6.17181">
        <ele>400</ele>
        <time>2012-02-04T10:39:22Z</time>
      </trkpt>
      <trkpt lat="48.62954" lon="6.17177">
        <ele>400</ele>
        <time>2012-02-04T10:39:27Z</time>
      </trkpt>
      <trkpt lat="48.6295" lon="6.17175">
        <ele>401</ele>
        <time>2012-02-04T10:39:31Z</time>
      </trkpt>
      <trkpt lat="48.62944" lon="6.17172">
        <ele>402</ele>
        <time>2012-02-04T10:39:35Z</time>
      </trkpt>
      <trkpt lat="48.62939" lon="6.17169">
        <ele>402</ele>
        <time>2012-02-04T10:39:39Z</time>
      </trkpt>
      <trkpt lat="48.62934" lon="6.17167">
        <ele>403</ele>
        <time>2012-02-04T10:39:43Z</time>
      </trkpt>
      <trkpt lat="48.62929" lon="6.17165">
        <ele>404</ele>
        <time>2012-02-04T10:39:47Z</time>
      </trkpt>
      <trkpt lat="48.62923" lon="6.17163">
        <ele>405</ele>
        <time>2012-02-04T10:39:51Z</time>
      </trkpt>
      <trkpt lat="48.62919" lon="6.17163">
        <ele>405</ele>
        <time>2012-02-04T10:39:54Z</time>
      </trkpt>
      <trkpt lat="48.62913" lon="6.17162">
        <ele>406</ele>
        <time>2012-02-04T10:39:58Z</time>
      </trkpt>
      <trkpt lat="48.62908" lon="6.17162">
        <ele>407</ele>
        <time>2012-02-04T10:40:02Z</time>
      </trkpt>
      <trkpt lat="48.62903" lon="6.17162">
        <ele>407</ele>
        <time>2012-02-04T10:40:07Z</time>
      </trkpt>
      <trkpt lat="48.62898" lon="6.17163">
        <ele>408</ele>
        <time>2012-02-04T10:40:11Z</time>
      </trkpt>
      <trkpt lat="48.62893" lon="6.17165">
        <ele>408</ele>
        <time>2012-02-04T10:40:16Z</time>
      </trkpt>
      <trkpt lat="48.62888" lon="6.17167">
        <ele>409</ele>
        <time>2012-02-04T10:40:21Z</time>
      </trkpt>
      <trkpt lat="48.62883" lon="6.17169">
        <ele>409</ele>
        <time>2012-02-04T10:40:25Z</time>
      </trkpt>
      <trkpt lat="48.62878" lon="6.17171">
        <ele>409</ele>
        <time>2012-02-04T10:40:29Z</time>
      </trkpt>
      <trkpt lat="48.62872" lon="6.17173">
        <ele>410</ele>
        <time>2012-02-04T10:40:33Z</time>
      </trkpt>
      <trkpt lat="48.62867" lon="6.17177">
        <ele>410</ele>
        <time>2012-02-04T10:40:37Z</time>
      </trkpt>
      <trkpt lat="48.62862" lon="6.1718">
        <ele>410</ele>
        <time>2012-02-04T10:40:41Z</time>
      </trkpt>
      <trkpt lat="48.62858" lon="6.17182">
        <ele>410</ele>
        <time>2012-02-04T10:40:46Z</time>
      </trkpt>
      <trkpt lat="48.62853" lon="6.17181">
        <ele>410</ele>
        <time>2012-02-04T10:40:52Z</time>
      </trkpt>
      <trkpt lat="48.62857" lon="6.17185">
        <ele>410</ele>
        <time>2012-02-04T10:42:05Z</time>
      </trkpt>
      <trkpt lat="48.6286" lon="6.1719">
        <ele>410</ele>
        <time>2012-02-04T10:42:10Z</time>
      </trkpt>
      <trkpt lat="48.62863" lon="6.17196">
        <ele>409</ele>
        <time>2012-02-04T10:42:16Z</time>
      </trkpt>
      <trkpt lat="48.6286" lon="6.17202">
        <ele>409</ele>
        <time>2012-02-04T10:42:44Z</time>
      </trkpt>
      <trkpt lat="48.62855" lon="6.172">
        <ele>410</ele>
        <time>2012-02-04T10:42:54Z</time>
      </trkpt>
      <trkpt lat="48.62851" lon="6.17196">
        <ele>410</ele>
        <time>2012-02-04T10:42:58Z</time>
      </trkpt>
      <trkpt lat="48.62847" lon="6.17192">
        <ele>410</ele>
        <time>2012-02-04T10:43:02Z</time>
      </trkpt>
      <trkpt lat="48.62844" lon="6.17188">
        <ele>410</ele>
        <time>2012-02-04T10:43:07Z</time>
      </trkpt>
      <trkpt lat="48.62838" lon="6.17186">
        <ele>410</ele>
        <time>2012-02-04T10:43:12Z</time>
      </trkpt>
      <trkpt lat="48.62833" lon="6.17188">
        <ele>410</ele>
        <time>2012-02-04T10:43:16Z</time>
      </trkpt>
      <trkpt lat="48.62828" lon="6.17191">
        <ele>410</ele>
        <time>2012-02-04T10:43:20Z</time>
      </trkpt>
      <trkpt lat="48.62822" lon="6.17193">
        <ele>410</ele>
        <time>2012-02-04T10:43:24Z</time>
      </trkpt>
      <trkpt lat="48.62816" lon="6.17194">
        <ele>410</ele>
        <time>2012-02-04T10:43:28Z</time>
      </trkpt>
      <trkpt lat="48.6281" lon="6.17194">
        <ele>410</ele>
        <time>2012-02-04T10:43:32Z</time>
      </trkpt>
      <trkpt lat="48.62806" lon="6.17194">
        <ele>410</ele>
        <time>2012-02-04T10:43:35Z</time>
      </trkpt>
      <trkpt lat="48.628" lon="6.17195">
        <ele>411</ele>
        <time>2012-02-04T10:43:39Z</time>
      </trkpt>
      <trkpt lat="48.62795" lon="6.17194">
        <ele>411</ele>
        <time>2012-02-04T10:43:48Z</time>
      </trkpt>
      <trkpt lat="48.6279" lon="6.17196">
        <ele>411</ele>
        <time>2012-02-04T10:43:52Z</time>
      </trkpt>
      <trkpt lat="48.62785" lon="6.17199">
        <ele>411</ele>
        <time>2012-02-04T10:43:55Z</time>
      </trkpt>
      <trkpt lat="48.6278" lon="6.172">
        <ele>411</ele>
        <time>2012-02-04T10:43:59Z</time>
      </trkpt>
      <trkpt lat="48.62775" lon="6.17196">
        <ele>411</ele>
        <time>2012-02-04T10:44:04Z</time>
      </trkpt>
      <trkpt lat="48.62773" lon="6.1719">
        <ele>411</ele>
        <time>2012-02-04T10:44:08Z</time>
      </trkpt>
      <trkpt lat="48.62771" lon="6.17182">
        <ele>411</ele>
        <time>2012-02-04T10:44:12Z</time>
      </trkpt>
      <trkpt lat="48.6277" lon="6.17174">
        <ele>411</ele>
        <time>2012-02-04T10:44:16Z</time>
      </trkpt>
      <trkpt lat="48.6277" lon="6.17167">
        <ele>411</ele>
        <time>2012-02-04T10:44:19Z</time>
      </trkpt>
      <trkpt lat="48.6277" lon="6.17159">
        <ele>411</ele>
        <time>2012-02-04T10:44:23Z</time>
      </trkpt>
      <trkpt lat="48.62769" lon="6.17152">
        <ele>411</ele>
        <time>2012-02-04T10:44:27Z</time>
      </trkpt>
      <trkpt lat="48.62767" lon="6.17144">
        <ele>410</ele>
        <time>2012-02-04T10:44:32Z</time>
      </trkpt>
      <trkpt lat="48.62764" lon="6.17137">
        <ele>410</ele>
        <time>2012-02-04T10:44:36Z</time>
      </trkpt>
      <trkpt lat="48.62762" lon="6.1713">
        <ele>410</ele>
        <time>2012-02-04T10:44:40Z</time>
      </trkpt>
      <trkpt lat="48.62759" lon="6.17124">
        <ele>410</ele>
        <time>2012-02-04T10:44:43Z</time>
      </trkpt>
      <trkpt lat="48.62757" lon="6.17118">
        <ele>410</ele>
        <time>2012-02-04T10:44:46Z</time>
      </trkpt>
      <trkpt lat="48.62754" lon="6.17111">
        <ele>410</ele>
        <time>2012-02-04T10:44:49Z</time>
      </trkpt>
      <trkpt lat="48.62751" lon="6.17103">
        <ele>410</ele>
        <time>2012-02-04T10:44:52Z</time>
      </trkpt>
      <trkpt lat="48.62748" lon="6.17096">
        <ele>410</ele>
        <time>2012-02-04T10:44:55Z</time>
      </trkpt>
      <trkpt lat="48.62745" lon="6.1709">
        <ele>410</ele>
        <time>2012-02-04T10:44:58Z</time>
      </trkpt>
      <trkpt lat="48.62743" lon="6.17084">
        <ele>410</ele>
        <time>2012-02-04T10:45:01Z</time>
      </trkpt>
      <trkpt lat="48.62739" lon="6.17077">
        <ele>410</ele>
        <time>2012-02-04T10:45:05Z</time>
      </trkpt>
      <trkpt lat="48.62737" lon="6.17071">
        <ele>409</ele>
        <time>2012-02-04T10:45:08Z</time>
      </trkpt>
      <trkpt lat="48.62734" lon="6.17064">
        <ele>409</ele>
        <time>2012-02-04T10:45:11Z</time>
      </trkpt>
      <trkpt lat="48.62732" lon="6.17057">
        <ele>409</ele>
        <time>2012-02-04T10:45:15Z</time>
      </trkpt>
      <trkpt lat="48.62728" lon="6.1705">
        <ele>409</ele>
        <time>2012-02-04T10:45:19Z</time>
      </trkpt>
      <trkpt lat="48.62725" lon="6.17043">
        <ele>409</ele>
        <time>2012-02-04T10:45:23Z</time>
      </trkpt>
      <trkpt lat="48.62722" lon="6.17037">
        <ele>409</ele>
        <time>2012-02-04T10:45:26Z</time>
      </trkpt>
      <trkpt lat="48.6272" lon="6.1703">
        <ele>409</ele>
        <time>2012-02-04T10:45:30Z</time>
      </trkpt>
      <trkpt lat="48.62718" lon="6.17022">
        <ele>409</ele>
        <time>2012-02-04T10:45:34Z</time>
      </trkpt>
      <trkpt lat="48.62716" lon="6.17015">
        <ele>409</ele>
        <time>2012-02-04T10:45:37Z</time>
      </trkpt>
      <trkpt lat="48.62712" lon="6.17008">
        <ele>409</ele>
        <time>2012-02-04T10:45:41Z</time>
      </trkpt>
      <trkpt lat="48.62708" lon="6.17002">
        <ele>409</ele>
        <time>2012-02-04T10:45:45Z</time>
      </trkpt>
      <trkpt lat="48.62704" lon="6.16998">
        <ele>409</ele>
        <time>2012-02-04T10:45:53Z</time>
      </trkpt>
      <trkpt lat="48.62707" lon="6.17004">
        <ele>410</ele>
        <time>2012-02-04T10:47:17Z</time>
      </trkpt>
      <trkpt lat="48.62704" lon="6.16997">
        <ele>410</ele>
        <time>2012-02-04T10:47:57Z</time>
      </trkpt>
      <trkpt lat="48.62705" lon="6.16989">
        <ele>410</ele>
        <time>2012-02-04T10:48:01Z</time>
      </trkpt>
      <trkpt lat="48.62704" lon="6.16981">
        <ele>410</ele>
        <time>2012-02-04T10:48:06Z</time>
      </trkpt>
      <trkpt lat="48.627" lon="6.16973">
        <ele>410</ele>
        <time>2012-02-04T10:48:11Z</time>
      </trkpt>
      <trkpt lat="48.62698" lon="6.16967">
        <ele>410</ele>
        <time>2012-02-04T10:48:14Z</time>
      </trkpt>
      <trkpt lat="48.62696" lon="6.1696">
        <ele>410</ele>
        <time>2012-02-04T10:48:17Z</time>
      </trkpt>
      <trkpt lat="48.62693" lon="6.16953">
        <ele>410</ele>
        <time>2012-02-04T10:48:21Z</time>
      </trkpt>
      <trkpt lat="48.62692" lon="6.16945">
        <ele>410</ele>
        <time>2012-02-04T10:48:25Z</time>
      </trkpt>
      <trkpt lat="48.62692" lon="6.16937">
        <ele>410</ele>
        <time>2012-02-04T10:48:29Z</time>
      </trkpt>
      <trkpt lat="48.62692" lon="6.16928">
        <ele>410</ele>
        <time>2012-02-04T10:48:33Z</time>
      </trkpt>
      <trkpt lat="48.62691" lon="6.1692">
        <ele>410</ele>
        <time>2012-02-04T10:48:37Z</time>
      </trkpt>
      <trkpt lat="48.6269" lon="6.16911">
        <ele>410</ele>
        <time>2012-02-04T10:48:41Z</time>
      </trkpt>
      <trkpt lat="48.6269" lon="6.16902">
        <ele>410</ele>
        <time>2012-02-04T10:48:45Z</time>
      </trkpt>
      <trkpt lat="48.6269" lon="6.16895">
        <ele>410</ele>
        <time>2012-02-04T10:48:48Z</time>
      </trkpt>
      <trkpt lat="48.62691" lon="6.16888">
        <ele>410</ele>
        <time>2012-02-04T10:48:51Z</time>
      </trkpt>
      <trkpt lat="48.62692" lon="6.16881">
        <ele>410</ele>
        <time>2012-02-04T10:48:54Z</time>
      </trkpt>
      <trkpt lat="48.62693" lon="6.16872">
        <ele>411</ele>
        <time>2012-02-04T10:48:58Z</time>
      </trkpt>
      <trkpt lat="48.62693" lon="6.16864">
        <ele>411</ele>
        <time>2012-02-04T10:49:02Z</time>
      </trkpt>
      <trkpt lat="48.62693" lon="6.16854">
        <ele>411</ele>
        <time>2012-02-04T10:49:06Z</time>
      </trkpt>
      <trkpt lat="48.62693" lon="6.16848">
        <ele>411</ele>
        <time>2012-02-04T10:49:10Z</time>
      </trkpt>
      <trkpt lat="48.62693" lon="6.1684">
        <ele>410</ele>
        <time>2012-02-04T10:49:22Z</time>
      </trkpt>
      <trkpt lat="48.62692" lon="6.16833">
        <ele>410</ele>
        <time>2012-02-04T10:49:26Z</time>
      </trkpt>
      <trkpt lat="48.6269" lon="6.16824">
        <ele>410</ele>
        <time>2012-02-04T10:49:30Z</time>
      </trkpt>
      <trkpt lat="48.62687" lon="6.16817">
        <ele>410</ele>
        <time>2012-02-04T10:49:34Z</time>
      </trkpt>
      <trkpt lat="48.62684" lon="6.16809">
        <ele>410</ele>
        <time>2012-02-04T10:49:38Z</time>
      </trkpt>
      <trkpt lat="48.62682" lon="6.16802">
        <ele>410</ele>
        <time>2012-02-04T10:49:41Z</time>
      </trkpt>
      <trkpt lat="48.62679" lon="6.16796">
        <ele>410</ele>
        <time>2012-02-04T10:49:44Z</time>
      </trkpt>
      <trkpt lat="48.62677" lon="6.1679">
        <ele>410</ele>
        <time>2012-02-04T10:49:47Z</time>
      </trkpt>
      <trkpt lat="48.62674" lon="6.16782">
        <ele>410</ele>
        <time>2012-02-04T10:49:51Z</time>
      </trkpt>
      <trkpt lat="48.62672" lon="6.16774">
        <ele>410</ele>
        <time>2012-02-04T10:49:55Z</time>
      </trkpt>
      <trkpt lat="48.62669" lon="6.16766">
        <ele>409</ele>
        <time>2012-02-04T10:49:59Z</time>
      </trkpt>
      <trkpt lat="48.62666" lon="6.16759">
        <ele>409</ele>
        <time>2012-02-04T10:50:03Z</time>
      </trkpt>
      <trkpt lat="48.62664" lon="6.16752">
        <ele>409</ele>
        <time>2012-02-04T10:50:07Z</time>
      </trkpt>
      <trkpt lat="48.62662" lon="6.16745">
        <ele>409</ele>
        <time>2012-02-04T10:50:11Z</time>
      </trkpt>
      <trkpt lat="48.6266" lon="6.16738">
        <ele>409</ele>
        <time>2012-02-04T10:50:15Z</time>
      </trkpt>
      <trkpt lat="48.62658" lon="6.1673">
        <ele>409</ele>
        <time>2012-02-04T10:50:19Z</time>
      </trkpt>
      <trkpt lat="48.62655" lon="6.16722">
        <ele>409</ele>
        <time>2012-02-04T10:50:23Z</time>
      </trkpt>
      <trkpt lat="48.62652" lon="6.16713">
        <ele>408</ele>
        <time>2012-02-04T10:50:27Z</time>
      </trkpt>
      <trkpt lat="48.6265" lon="6.16705">
        <ele>408</ele>
        <time>2012-02-04T10:50:31Z</time>
      </trkpt>
      <trkpt lat="48.62648" lon="6.16698">
        <ele>408</ele>
        <time>2012-02-04T10:50:34Z</time>
      </trkpt>
      <trkpt lat="48.62647" lon="6.1669">
        <ele>408</ele>
        <time>2012-02-04T10:50:38Z</time>
      </trkpt>
      <trkpt lat="48.62645" lon="6.16681">
        <ele>408</ele>
        <time>2012-02-04T10:50:42Z</time>
      </trkpt>
      <trkpt lat="48.62644" lon="6.16673">
        <ele>408</ele>
        <time>2012-02-04T10:50:46Z</time>
      </trkpt>
      <trkpt lat="48.62643" lon="6.16664">
        <ele>408</ele>
        <time>2012-02-04T10:50:50Z</time>
      </trkpt>
      <trkpt lat="48.62641" lon="6.16656">
        <ele>407</ele>
        <time>2012-02-04T10:50:54Z</time>
      </trkpt>
      <trkpt lat="48.6264" lon="6.16648">
        <ele>407</ele>
        <time>2012-02-04T10:50:58Z</time>
      </trkpt>
      <trkpt lat="48.6264" lon="6.1664">
        <ele>407</ele>
        <time>2012-02-04T10:51:02Z</time>
      </trkpt>
      <trkpt lat="48.62639" lon="6.16632">
        <ele>407</ele>
        <time>2012-02-04T10:51:06Z</time>
      </trkpt>
      <trkpt lat="48.62638" lon="6.16624">
        <ele>407</ele>
        <time>2012-02-04T10:51:10Z</time>
      </trkpt>
      <trkpt lat="48.62637" lon="6.16616">
        <ele>407</ele>
        <time>2012-02-04T10:51:14Z</time>
      </trkpt>
      <trkpt lat="48.62636" lon="6.16609">
        <ele>407</ele>
        <time>2012-02-04T10:51:17Z</time>
      </trkpt>
      <trkpt lat="48.62635" lon="6.16602">
        <ele>407</ele>
        <time>2012-02-04T10:51:20Z</time>
      </trkpt>
      <trkpt lat="48.62634" lon="6.16595">
        <ele>407</ele>
        <time>2012-02-04T10:51:23Z</time>
      </trkpt>
      <trkpt lat="48.62634" lon="6.16588">
        <ele>406</ele>
        <time>2012-02-04T10:51:26Z</time>
      </trkpt>
      <trkpt lat="48.62633" lon="6.16581">
        <ele>406</ele>
        <time>2012-02-04T10:51:29Z</time>
      </trkpt>
      <trkpt lat="48.62631" lon="6.16574">
        <ele>406</ele>
        <time>2012-02-04T10:51:32Z</time>
      </trkpt>
      <trkpt lat="48.6263" lon="6.16567">
        <ele>406</ele>
        <time>2012-02-04T10:51:35Z</time>
      </trkpt>
      <trkpt lat="48.62629" lon="6.1656">
        <ele>406</ele>
        <time>2012-02-04T10:51:38Z</time>
      </trkpt>
      <trkpt lat="48.62628" lon="6.16553">
        <ele>406</ele>
        <time>2012-02-04T10:51:41Z</time>
      </trkpt>
      <trkpt lat="48.62627" lon="6.16546">
        <ele>406</ele>
        <time>2012-02-04T10:51:44Z</time>
      </trkpt>
      <trkpt lat="48.62626" lon="6.16538">
        <ele>406</ele>
        <time>2012-02-04T10:51:48Z</time>
      </trkpt>
      <trkpt lat="48.62625" lon="6.16529">
        <ele>406</ele>
        <time>2012-02-04T10:51:52Z</time>
      </trkpt>
      <trkpt lat="48.62624" lon="6.16521">
        <ele>406</ele>
        <time>2012-02-04T10:52:05Z</time>
      </trkpt>
      <trkpt lat="48.62624" lon="6.16513">
        <ele>406</ele>
        <time>2012-02-04T10:52:08Z</time>
      </trkpt>
      <trkpt lat="48.62623" lon="6.16507">
        <ele>407</ele>
        <time>2012-02-04T10:52:13Z</time>
      </trkpt>
      <trkpt lat="48.62622" lon="6.165">
        <ele>407</ele>
        <time>2012-02-04T10:52:16Z</time>
      </trkpt>
      <trkpt lat="48.62621" lon="6.16491">
        <ele>407</ele>
        <time>2012-02-04T10:52:20Z</time>
      </trkpt>
      <trkpt lat="48.6262" lon="6.16483">
        <ele>408</ele>
        <time>2012-02-04T10:52:24Z</time>
      </trkpt>
      <trkpt lat="48.62619" lon="6.16474">
        <ele>408</ele>
        <time>2012-02-04T10:52:28Z</time>
      </trkpt>
      <trkpt lat="48.62618" lon="6.16466">
        <ele>408</ele>
        <time>2012-02-04T10:52:32Z</time>
      </trkpt>
      <trkpt lat="48.62618" lon="6.16457">
        <ele>408</ele>
        <time>2012-02-04T10:52:36Z</time>
      </trkpt>
      <trkpt lat="48.62617" lon="6.16449">
        <ele>408</ele>
        <time>2012-02-04T10:52:40Z</time>
      </trkpt>
      <trkpt lat="48.62616" lon="6.1644">
        <ele>409</ele>
        <time>2012-02-04T10:52:44Z</time>
      </trkpt>
      <trkpt lat="48.62615" lon="6.16432">
        <ele>409</ele>
        <time>2012-02-04T10:52:48Z</time>
      </trkpt>
      <trkpt lat="48.62614" lon="6.16423">
        <ele>409</ele>
        <time>2012-02-04T10:52:52Z</time>
      </trkpt>
      <trkpt lat="48.62613" lon="6.16414">
        <ele>409</ele>
        <time>2012-02-04T10:52:56Z</time>
      </trkpt>
      <trkpt lat="48.62613" lon="6.16406">
        <ele>409</ele>
        <time>2012-02-04T10:53:00Z</time>
      </trkpt>
      <trkpt lat="48.62612" lon="6.16397">
        <ele>409</ele>
        <time>2012-02-04T10:53:04Z</time>
      </trkpt>
      <trkpt lat="48.62611" lon="6.16389">
        <ele>409</ele>
        <time>2012-02-04T10:53:08Z</time>
      </trkpt>
      <trkpt lat="48.6261" lon="6.1638">
        <ele>409</ele>
        <time>2012-02-04T10:53:12Z</time>
      </trkpt>
      <trkpt lat="48.62609" lon="6.16372">
        <ele>409</ele>
        <time>2012-02-04T10:53:16Z</time>
      </trkpt>
      <trkpt lat="48.62608" lon="6.16363">
        <ele>409</ele>
        <time>2012-02-04T10:53:20Z</time>
      </trkpt>
      <trkpt lat="48.62607" lon="6.16356">
        <ele>409</ele>
        <time>2012-02-04T10:53:23Z</time>
      </trkpt>
      <trkpt lat="48.62606" lon="6.16347">
        <ele>409</ele>
        <time>2012-02-04T10:53:27Z</time>
      </trkpt>
      <trkpt lat="48.62605" lon="6.16338">
        <ele>409</ele>
        <time>2012-02-04T10:53:31Z</time>
      </trkpt>
      <trkpt lat="48.62604" lon="6.16329">
        <ele>409</ele>
        <time>2012-02-04T10:53:35Z</time>
      </trkpt>
      <trkpt lat="48.62602" lon="6.16321">
        <ele>409</ele>
        <time>2012-02-04T10:53:39Z</time>
      </trkpt>
      <trkpt lat="48.626" lon="6.16312">
        <ele>409</ele>
        <time>2012-02-04T10:53:43Z</time>
      </trkpt>
      <trkpt lat="48.62598" lon="6.16304">
        <ele>409</ele>
        <time>2012-02-04T10:53:47Z</time>
      </trkpt>
      <trkpt lat="48.62596" lon="6.16296">
        <ele>409</ele>
        <time>2012-02-04T10:53:51Z</time>
      </trkpt>
      <trkpt lat="48.62594" lon="6.16288">
        <ele>409</ele>
        <time>2012-02-04T10:53:55Z</time>
      </trkpt>
      <trkpt lat="48.62592" lon="6.16279">
        <ele>409</ele>
        <time>2012-02-04T10:53:59Z</time>
      </trkpt>
      <trkpt lat="48.6259" lon="6.16271">
        <ele>409</ele>
        <time>2012-02-04T10:54:03Z</time>
      </trkpt>
      <trkpt lat="48.62588" lon="6.16263">
        <ele>409</ele>
        <time>2012-02-04T10:54:07Z</time>
      </trkpt>
      <trkpt lat="48.62586" lon="6.16254">
        <ele>409</ele>
        <time>2012-02-04T10:54:11Z</time>
      </trkpt>
      <trkpt lat="48.62584" lon="6.16246">
        <ele>409</ele>
        <time>2012-02-04T10:54:15Z</time>
      </trkpt>
      <trkpt lat="48.62582" lon="6.16239">
        <ele>409</ele>
        <time>2012-02-04T10:54:18Z</time>
      </trkpt>
      <trkpt lat="48.6258" lon="6.16233">
        <ele>409</ele>
        <time>2012-02-04T10:54:21Z</time>
      </trkpt>
      <trkpt lat="48.62578" lon="6.16224">
        <ele>409</ele>
        <time>2012-02-04T10:54:25Z</time>
      </trkpt>
      <trkpt lat="48.62576" lon="6.16216">
        <ele>408</ele>
        <time>2012-02-04T10:54:29Z</time>
      </trkpt>
      <trkpt lat="48.62574" lon="6.16208">
        <ele>408</ele>
        <time>2012-02-04T10:54:33Z</time>
      </trkpt>
      <trkpt lat="48.62572" lon="6.162">
        <ele>408</ele>
        <time>2012-02-04T10:54:37Z</time>
      </trkpt>
      <trkpt lat="48.6257" lon="6.16192">
        <ele>408</ele>
        <time>2012-02-04T10:54:41Z</time>
      </trkpt>
      <trkpt lat="48.62569" lon="6.16184">
        <ele>408</ele>
        <time>2012-02-04T10:54:45Z</time>
      </trkpt>
      <trkpt lat="48.6257" lon="6.16175">
        <ele>408</ele>
        <time>2012-02-04T10:54:49Z</time>
      </trkpt>
      <trkpt lat="48.62571" lon="6.16166">
        <ele>407</ele>
        <time>2012-02-04T10:54:53Z</time>
      </trkpt>
      <trkpt lat="48.62571" lon="6.1616">
        <ele>407</ele>
        <time>2012-02-04T10:54:56Z</time>
      </trkpt>
      <trkpt lat="48.62572" lon="6.16151">
        <ele>407</ele>
        <time>2012-02-04T10:55:00Z</time>
      </trkpt>
      <trkpt lat="48.62571" lon="6.16144">
        <ele>407</ele>
        <time>2012-02-04T10:55:03Z</time>
      </trkpt>
      <trkpt lat="48.62571" lon="6.16137">
        <ele>407</ele>
        <time>2012-02-04T10:55:06Z</time>
      </trkpt>
      <trkpt lat="48.62571" lon="6.16128">
        <ele>406</ele>
        <time>2012-02-04T10:55:10Z</time>
      </trkpt>
      <trkpt lat="48.62571" lon="6.16121">
        <ele>406</ele>
        <time>2012-02-04T10:55:18Z</time>
      </trkpt>
      <trkpt lat="48.62569" lon="6.16115">
        <ele>406</ele>
        <time>2012-02-04T10:55:31Z</time>
      </trkpt>
      <trkpt lat="48.62568" lon="6.16108">
        <ele>406</ele>
        <time>2012-02-04T10:55:59Z</time>
      </trkpt>
      <trkpt lat="48.62568" lon="6.16101">
        <ele>406</ele>
        <time>2012-02-04T10:56:34Z</time>
      </trkpt>
      <trkpt lat="48.6257" lon="6.16107">
        <ele>406</ele>
        <time>2012-02-04T10:57:10Z</time>
      </trkpt>
    </trkseg>
  </trk>
</gpx>